Observation data for Palo Duro Canyon State Park Floor on 01/22/2019      Previous  Date  Next       Current Mesonet Observations  Soil Data  Daily Summary Page  Observations in Plain Language
KPD2 220600Z 19003G8KT 14/M00 A2959 RMK A01 T01401001  RH  038%=      5-min Rain = 0
KPD2 220601Z 20007KT 14/M00 A2959 RMK A01 T01391001  RH  038%=      5-min Rain = 0
KPD2 220602Z 18006G16KT 14/M00 A2959 RMK A01 T01391001  RH  038%=      5-min Rain = 0
KPD2 220603Z 19010KT 14/M00 A2959 RMK A01 T01391001  RH  038%=      5-min Rain = 0
KPD2 220604Z 19008KT 14/M00 A2959 RMK A01 T01381001  RH  038%=      5-min Rain = 0
KPD2 220605Z 19009KT 14/M00 A2959 RMK A01 T01381001  RH  038%=      5-min Rain = 0
KPD2 220606Z 21009G15KT 14/M00 A2959 RMK A01 T01381001  RH  038%=      5-min Rain = 0
KPD2 220607Z 15005KT 14/M00 A2959 RMK A01 T01381001  RH  039%=      5-min Rain = 0
KPD2 220608Z 25006G13KT 14/M00 A2959 RMK A01 T01381001  RH  039%=      5-min Rain = 0
KPD2 220609Z 23007G12KT 14/M00 A2959 RMK A01 T01371001  RH  039%=      5-min Rain = 0
KPD2 220610Z 20004KT 14/M00 A2959 RMK A01 T01371001  RH  039%=      5-min Rain = 0
KPD2 220611Z 19011G16KT 14/00 A2959 RMK A01 T013700-0  RH  039%=      5-min Rain = 0
KPD2 220612Z 18007G14KT 14/M00 A296 RMK A01 T01361001  RH  039%=      5-min Rain = 0
KPD2 220613Z 23006G11KT 14/00 A296 RMK A01 T013700-0  RH  039%=      5-min Rain = 0
KPD2 220614Z 16006G11KT 14/00 A296 RMK A01 T013700-0  RH  039%=      5-min Rain = 0
KPD2 220615Z 20007G13KT 14/00 A296 RMK A01 T013700-0  RH  039%=      5-min Rain = 0
KPD2 220616Z 19007KT 14/00 A296 RMK A01 T013600-0  RH  039%=      5-min Rain = 0
KPD2 220617Z 17005G11KT 14/00 A296 RMK A01 T013600-0  RH  039%=      5-min Rain = 0
KPD2 220618Z 17009G14KT 14/00 A296 RMK A01 T013700-0  RH  039%=      5-min Rain = 0
KPD2 220619Z 17007KT 14/00 A296 RMK A01 T013600-0  RH  039%=      5-min Rain = 0
KPD2 220620Z 17005KT 14/00 A296 RMK A01 T01350000  RH  039%=      5-min Rain = 0
KPD2 220621Z 20006KT 14/00 A296 RMK A01 T01350000  RH  039%=      5-min Rain = 0
KPD2 220622Z 19006KT 14/00 A296 RMK A01 T013500-0  RH  039%=      5-min Rain = 0
KPD2 220623Z 18004KT 14/00 A296 RMK A01 T013500-0  RH  039%=      5-min Rain = 0
KPD2 220624Z 17008G13KT 14/00 A296 RMK A01 T01350000  RH  039%=      5-min Rain = 0
KPD2 220625Z 19012G21KT 13/00 A296 RMK A01 T013400-0  RH  040%=      5-min Rain = 0
KPD2 220626Z 19011G17KT 13/00 A296 RMK A01 T01340000  RH  040%=      5-min Rain = 0
KPD2 220627Z 20008G13KT 13/00 A296 RMK A01 T01340001  RH  040%=      5-min Rain = 0
KPD2 220628Z 15008KT 13/00 A296 RMK A01 T01340001  RH  040%=      5-min Rain = 0
KPD2 220629Z 16007G12KT 13/00 A296 RMK A01 T013300-0  RH  040%=      5-min Rain = 0
KPD2 220630Z 18007KT 13/00 A296 RMK A01 T01330000  RH  040%=      5-min Rain = 0
KPD2 220631Z 20007KT 13/00 A296 RMK A01 T01330000  RH  040%=      5-min Rain = 0
KPD2 220632Z 20007G18KT 13/00 A296 RMK A01 T01330000  RH  040%=      5-min Rain = 0
KPD2 220633Z 18010G22KT 13/00 A296 RMK A01 T01320000  RH  040%=      5-min Rain = 0
KPD2 220634Z 20008KT 13/00 A296 RMK A01 T01320001  RH  040%=      5-min Rain = 0
KPD2 220635Z 19011G16KT 13/00 A296 RMK A01 T01320001  RH  040%=      5-min Rain = 0
KPD2 220636Z 18009G15KT 13/00 A296 RMK A01 T01320001  RH  040%=      5-min Rain = 0
KPD2 220637Z 19012G19KT 13/00 A296 RMK A01 T01320001  RH  040%=      5-min Rain = 0
KPD2 220638Z 21008G15KT 13/00 A296 RMK A01 T01320001  RH  040%=      5-min Rain = 0
KPD2 220639Z 18007KT 13/00 A296 RMK A01 T01320001  RH  040%=      5-min Rain = 0
KPD2 220640Z 16008KT 13/00 A296 RMK A01 T01310000  RH  041%=      5-min Rain = 0
KPD2 220641Z 18012G22KT 13/00 A296 RMK A01 T01310001  RH  041%=      5-min Rain = 0
KPD2 220642Z 22013G19KT 13/00 A2961 RMK A01 T01310001  RH  041%=      5-min Rain = 0
KPD2 220643Z 18004KT 13/00 A296 RMK A01 T01310001  RH  041%=      5-min Rain = 0
KPD2 220644Z 18008G15KT 13/00 A296 RMK A01 T01310001  RH  041%=      5-min Rain = 0
KPD2 220645Z 21015G23KT 13/00 A296 RMK A01 T01300001  RH  041%=      5-min Rain = 0
KPD2 220646Z 21007G14KT 13/00 A296 RMK A01 T01300001  RH  041%=      5-min Rain = 0
KPD2 220647Z 17010G20KT 13/00 A296 RMK A01 T01310001  RH  041%=      5-min Rain = 0
KPD2 220648Z 21010G15KT 13/00 A296 RMK A01 T01300001  RH  041%=      5-min Rain = 0
KPD2 220649Z 14009KT 13/00 A296 RMK A01 T01290001  RH  041%=      5-min Rain = 0
KPD2 220650Z 20010KT 13/00 A296 RMK A01 T01290001  RH  041%=      5-min Rain = 0
KPD2 220651Z 23010G16KT 13/00 A296 RMK A01 T01290001  RH  042%=      5-min Rain = 0
KPD2 220652Z 16003G8KT 13/00 A296 RMK A01 T01290001  RH  042%=      5-min Rain = 0
KPD2 220653Z 17005G10KT 13/00 A296 RMK A01 T01280001  RH  042%=      5-min Rain = 0
KPD2 220654Z 23009G18KT 13/00 A296 RMK A01 T01270001  RH  042%=      5-min Rain = 0
KPD2 220655Z 21011G16KT 13/00 A2961 RMK A01 T01280002  RH  042%=      5-min Rain = 0
KPD2 220656Z 19012G17KT 13/00 A296 RMK A01 T01280002  RH  042%=      5-min Rain = 0
KPD2 220657Z 22007KT 13/00 A296 RMK A01 T01270002  RH  042%=      5-min Rain = 0
KPD2 220658Z 20005KT 13/00 A296 RMK A01 T01270002  RH  042%=      5-min Rain = 0
KPD2 220659Z 23003G11KT 13/00 A296 RMK A01 T01260001  RH  042%=      5-min Rain = 0
KPD2 220700Z 21010G17KT 13/00 A296 RMK A01 T01250001  RH  042%=      5-min Rain = 0
KPD2 220701Z 18006KT 13/00 A296 RMK A01 T01250001  RH  043%=      5-min Rain = 0
KPD2 220702Z 19009G15KT 13/00 A296 RMK A01 T01250001  RH  042%=      5-min Rain = 0
KPD2 220703Z 19010KT 13/00 A296 RMK A01 T01250002  RH  043%=      5-min Rain = 0
KPD2 220704Z 22008KT 13/00 A296 RMK A01 T01250002  RH  043%=      5-min Rain = 0
KPD2 220705Z 19008KT 13/00 A296 RMK A01 T01250002  RH  043%=      5-min Rain = 0
KPD2 220706Z 19009G17KT 12/00 A296 RMK A01 T01240002  RH  043%=      5-min Rain = 0
KPD2 220707Z 21009KT 12/00 A296 RMK A01 T01240002  RH  043%=      5-min Rain = 0
KPD2 220708Z 21013G18KT 12/00 A296 RMK A01 T01240002  RH  043%=      5-min Rain = 0
KPD2 220709Z 20009KT 12/00 A296 RMK A01 T01240002  RH  043%=      5-min Rain = 0
KPD2 220710Z 20010G18KT 13/00 A296 RMK A01 T01250002  RH  043%=      5-min Rain = 0
KPD2 220711Z 22013KT 13/00 A296 RMK A01 T01250002  RH  043%=      5-min Rain = 0
KPD2 220712Z 19012G18KT 13/00 A296 RMK A01 T01250002  RH  043%=      5-min Rain = 0
KPD2 220713Z 16010KT 13/00 A296 RMK A01 T01250002  RH  043%=      5-min Rain = 0
KPD2 220714Z 21010G15KT 12/00 A296 RMK A01 T01240002  RH  043%=      5-min Rain = 0
KPD2 220715Z 18005KT 12/00 A296 RMK A01 T01240002  RH  043%=      5-min Rain = 0
KPD2 220716Z 20008KT 12/00 A296 RMK A01 T01240002  RH  043%=      5-min Rain = 0
KPD2 220717Z 20012G17KT 12/00 A296 RMK A01 T01240002  RH  043%=      5-min Rain = 0
KPD2 220718Z 17013G19KT 12/00 A296 RMK A01 T01240003  RH  043%=      5-min Rain = 0
KPD2 220719Z 18011G16KT 12/00 A296 RMK A01 T01240002  RH  043%=      5-min Rain = 0
KPD2 220720Z 19015G22KT 12/00 A296 RMK A01 T01240002  RH  043%=      5-min Rain = 0
KPD2 220721Z 23013G22KT 12/00 A296 RMK A01 T01240003  RH  043%=      5-min Rain = 0
KPD2 220722Z 19005KT 12/00 A296 RMK A01 T01240002  RH  043%=      5-min Rain = 0
KPD2 220723Z 20009G15KT 12/00 A296 RMK A01 T01230002  RH  043%=      5-min Rain = 0
KPD2 220724Z 19013G25KT 12/00 A296 RMK A01 T01230002  RH  044%=      5-min Rain = 0
KPD2 220725Z 19011G19KT 12/00 A296 RMK A01 T01220002  RH  044%=      5-min Rain = 0
KPD2 220726Z 18013G19KT 12/00 A296 RMK A01 T01220003  RH  044%=      5-min Rain = 0
KPD2 220727Z 20013G24KT 12/00 A296 RMK A01 T01220002  RH  044%=      5-min Rain = 0
KPD2 220728Z 20015G21KT 12/00 A296 RMK A01 T01230003  RH  044%=      5-min Rain = 0
KPD2 220729Z 19009G17KT 12/00 A296 RMK A01 T01230002  RH  043%=      5-min Rain = 0
KPD2 220730Z 20011G16KT 12/00 A296 RMK A01 T01230002  RH  043%=      5-min Rain = 0
KPD2 220731Z 18010G16KT 12/00 A296 RMK A01 T01230002  RH  044%=      5-min Rain = 0
KPD2 220732Z 21008G13KT 12/00 A296 RMK A01 T01230003  RH  044%=      5-min Rain = 0
KPD2 220733Z 20010KT 12/00 A2961 RMK A01 T01220003  RH  044%=      5-min Rain = 0
KPD2 220734Z 21012G21KT 12/00 A2961 RMK A01 T01220003  RH  044%=      5-min Rain = 0
KPD2 220735Z 21012G18KT 12/00 A2961 RMK A01 T01220003  RH  044%=      5-min Rain = 0
KPD2 220736Z 19010KT 12/00 A2961 RMK A01 T01210002  RH  044%=      5-min Rain = 0
KPD2 220737Z 19009G14KT 12/00 A2961 RMK A01 T01210003  RH  044%=      5-min Rain = 0
KPD2 220738Z 18011G18KT 12/00 A2961 RMK A01 T01210003  RH  044%=      5-min Rain = 0
KPD2 220739Z 18010G15KT 12/00 A2961 RMK A01 T01210003  RH  044%=      5-min Rain = 0
KPD2 220740Z 20009KT 12/00 A2961 RMK A01 T01210003  RH  044%=      5-min Rain = 0
KPD2 220741Z 21006G12KT 12/00 A2962 RMK A01 T01200003  RH  044%=      5-min Rain = 0
KPD2 220742Z 28012G18KT 12/00 A2963 RMK A01 T01200003  RH  045%=      5-min Rain = 0
KPD2 220743Z 31015G22KT 12/00 A2964 RMK A01 T01180002  RH  045%=      5-min Rain = 0
KPD2 220744Z 30017G24KT 12/00 A2964 RMK A01 T01160002  RH  045%=      5-min Rain = 0
KPD2 220745Z 30013KT 11/00 A2964 RMK A01 T01140001  RH  046%=      5-min Rain = 0
KPD2 220746Z 29009G16KT 11/00 A2964 RMK A01 T01140001  RH  046%=      5-min Rain = 0
KPD2 220747Z 29008KT 11/00 A2963 RMK A01 T01130001  RH  046%=      5-min Rain = 0
KPD2 220748Z 28012KT 11/00 A2964 RMK A01 T01130001  RH  046%=      5-min Rain = 0
KPD2 220749Z 31013G20KT 11/00 A2966 RMK A01 T01140001  RH  046%=      5-min Rain = 0
KPD2 220750Z 31016KT 11/00 A2966 RMK A01 T01130001  RH  046%=      5-min Rain = 0
KPD2 220751Z 31008G14KT 11/00 A2966 RMK A01 T01130002  RH  046%=      5-min Rain = 0
KPD2 220752Z 27003KT 11/00 A2964 RMK A01 T01130001  RH  046%=      5-min Rain = 0
KPD2 220753Z 22007KT 11/00 A2964 RMK A01 T01120001  RH  046%=      5-min Rain = 0
KPD2 220754Z 23011KT 11/00 A2964 RMK A01 T01120001  RH  046%=      5-min Rain = 0
KPD2 220755Z 21010G17KT 12/00 A2963 RMK A01 T01150000  RH  045%=      5-min Rain = 0
KPD2 220756Z 24014G19KT 12/00 A2964 RMK A01 T011900-0  RH  044%=      5-min Rain = 0
KPD2 220757Z 23011G20KT 12/00 A2964 RMK A01 T01210000  RH  043%=      5-min Rain = 0
KPD2 220758Z 21012G18KT 12/00 A2964 RMK A01 T01210000  RH  043%=      5-min Rain = 0
KPD2 220759Z 22011G16KT 12/00 A2964 RMK A01 T01230000  RH  043%=      5-min Rain = 0
KPD2 220800Z 23011KT 12/00 A2964 RMK A01 T01230000  RH  043%=      5-min Rain = 0
KPD2 220801Z 21015G22KT 12/00 A2964 RMK A01 T01240000  RH  042%=      5-min Rain = 0
KPD2 220802Z 24013G18KT 13/00 A2964 RMK A01 T01250000  RH  042%=      5-min Rain = 0
KPD2 220803Z 24011G16KT 13/00 A2964 RMK A01 T012500-0  RH  042%=      5-min Rain = 0
KPD2 220804Z 25009G18KT 13/00 A2964 RMK A01 T012500-0  RH  042%=      5-min Rain = 0
KPD2 220805Z 23009G14KT 13/M00 A2964 RMK A01 T01251001  RH  042%=      5-min Rain = 0
KPD2 220806Z 23008G16KT 12/00 A2964 RMK A01 T012400-0  RH  042%=      5-min Rain = 0
KPD2 220807Z 23006G11KT 12/M00 A2963 RMK A01 T01241001  RH  042%=      5-min Rain = 0
KPD2 220808Z 22008KT 12/M00 A2963 RMK A01 T01231001  RH  042%=      5-min Rain = 0
KPD2 220809Z 22011G16KT 12/M00 A2963 RMK A01 T01221001  RH  043%=      5-min Rain = 0
KPD2 220810Z 24011KT 12/M00 A2963 RMK A01 T01231001  RH  043%=      5-min Rain = 0
KPD2 220811Z 23010KT 12/M00 A2963 RMK A01 T01231001  RH  042%=      5-min Rain = 0
KPD2 220812Z 24008KT 12/M00 A2963 RMK A01 T01231001  RH  042%=      5-min Rain = 0
KPD2 220813Z 24008G13KT 12/M00 A2963 RMK A01 T01231002  RH  042%=      5-min Rain = 0
KPD2 220814Z 22006KT 12/M00 A2963 RMK A01 T01231002  RH  042%=      5-min Rain = 0
KPD2 220815Z 24006G12KT 12/M00 A2963 RMK A01 T01231002  RH  042%=      5-min Rain = 0
KPD2 220816Z 22004G12KT 12/M00 A2963 RMK A01 T01221002  RH  042%=      5-min Rain = 0
KPD2 220817Z 23009G14KT 12/M00 A2963 RMK A01 T01221002  RH  042%=      5-min Rain = 0
KPD2 220818Z 22005G10KT 12/M00 A2963 RMK A01 T01221002  RH  042%=      5-min Rain = 0
KPD2 220819Z 22009G15KT 12/M00 A2963 RMK A01 T01221002  RH  043%=      5-min Rain = 0
KPD2 220820Z 23010G17KT 12/M00 A2963 RMK A01 T01211002  RH  042%=      5-min Rain = 0
KPD2 220821Z 24010G17KT 12/M00 A2964 RMK A01 T01221002  RH  042%=      5-min Rain = 0
KPD2 220822Z 23009G15KT 12/M00 A2963 RMK A01 T01221003  RH  042%=      5-min Rain = 0
KPD2 220823Z 24013G21KT 12/M00 A2963 RMK A01 T01231003  RH  042%=      5-min Rain = 0
KPD2 220824Z 23009G19KT 12/M00 A2963 RMK A01 T01241003  RH  042%=      5-min Rain = 0
KPD2 220825Z 23009G17KT 12/M00 A2963 RMK A01 T01241003  RH  041%=      5-min Rain = 0
KPD2 220826Z 23010KT 12/M00 A2963 RMK A01 T01241003  RH  041%=      5-min Rain = 0
KPD2 220827Z 23012G20KT 12/M00 A2963 RMK A01 T01241004  RH  041%=      5-min Rain = 0
KPD2 220828Z 23012G18KT 12/M00 A2963 RMK A01 T01241004  RH  041%=      5-min Rain = 0
KPD2 220829Z 23012KT 12/M00 A2963 RMK A01 T01241004  RH  041%=      5-min Rain = 0
KPD2 220830Z 23013G20KT 13/M00 A2963 RMK A01 T01251004  RH  041%=      5-min Rain = 0
KPD2 220831Z 23012G21KT 13/M00 A2963 RMK A01 T01251004  RH  041%=      5-min Rain = 0
KPD2 220832Z 23007G12KT 12/M00 A2963 RMK A01 T01241004  RH  041%=      5-min Rain = 0
KPD2 220833Z 24007G17KT 12/M00 A2963 RMK A01 T01241004  RH  041%=      5-min Rain = 0
KPD2 220834Z 24010G19KT 12/M01 A2963 RMK A01 T01231005  RH  041%=      5-min Rain = 0
KPD2 220835Z 24012G17KT 12/M00 A2963 RMK A01 T01231004  RH  041%=      5-min Rain = 0
KPD2 220836Z 22007G14KT 12/M00 A2963 RMK A01 T01231004  RH  041%=      5-min Rain = 0
KPD2 220837Z 24006G11KT 12/M01 A2963 RMK A01 T01221005  RH  042%=      5-min Rain = 0
KPD2 220838Z 24006G11KT 12/M01 A2963 RMK A01 T01221005  RH  042%=      5-min Rain = 0
KPD2 220839Z 24007G16KT 12/M01 A2963 RMK A01 T01221005  RH  042%=      5-min Rain = 0
KPD2 220840Z 24012G18KT 12/M01 A2963 RMK A01 T01211005  RH  042%=      5-min Rain = 0
KPD2 220841Z 23007G13KT 12/M01 A2963 RMK A01 T01211005  RH  042%=      5-min Rain = 0
KPD2 220842Z 23005KT 12/M01 A2963 RMK A01 T01211005  RH  042%=      5-min Rain = 0
KPD2 220843Z 24006G11KT 12/M01 A2963 RMK A01 T01201005  RH  042%=      5-min Rain = 0
KPD2 220844Z 25008G13KT 12/M01 A2963 RMK A01 T01201006  RH  042%=      5-min Rain = 0
KPD2 220845Z 25012KT 12/M01 A2963 RMK A01 T01201006  RH  042%=      5-min Rain = 0
KPD2 220846Z 24004G13KT 12/M01 A2963 RMK A01 T01201006  RH  042%=      5-min Rain = 0
KPD2 220847Z 25007G12KT 12/M01 A2963 RMK A01 T01201006  RH  042%=      5-min Rain = 0
KPD2 220848Z 24007G12KT 12/M01 A2963 RMK A01 T01211006  RH  041%=      5-min Rain = 0
KPD2 220849Z 24010G15KT 12/M01 A2963 RMK A01 T01201007  RH  041%=      5-min Rain = 0
KPD2 220850Z 23007G13KT 12/M01 A2963 RMK A01 T01211007  RH  041%=      5-min Rain = 0
KPD2 220851Z 24009G14KT 12/M01 A2963 RMK A01 T01211007  RH  041%=      5-min Rain = 0
KPD2 220852Z 23009G17KT 12/M01 A2963 RMK A01 T01211007  RH  041%=      5-min Rain = 0
KPD2 220853Z 25008G15KT 12/M01 A2963 RMK A01 T01211007  RH  041%=      5-min Rain = 0
KPD2 220854Z 25006G11KT 12/M01 A2963 RMK A01 T01201007  RH  041%=      5-min Rain = 0
KPD2 220855Z 23008G13KT 12/M01 A2963 RMK A01 T01201006  RH  042%=      5-min Rain = 0
KPD2 220856Z 25006G12KT 12/M01 A2963 RMK A01 T01201006  RH  042%=      5-min Rain = 0
KPD2 220857Z 25005G10KT 12/M01 A2963 RMK A01 T01191007  RH  042%=      5-min Rain = 0
KPD2 220858Z 25009G19KT 12/M01 A2963 RMK A01 T01191007  RH  042%=      5-min Rain = 0
KPD2 220859Z 24011G17KT 12/M01 A2963 RMK A01 T01191008  RH  042%=      5-min Rain = 0
KPD2 220900Z 25012G17KT 12/M01 A2963 RMK A01 T01191008  RH  041%=      5-min Rain = 0
KPD2 220901Z 26006G11KT 12/M01 A2963 RMK A01 T01201008  RH  041%=      5-min Rain = 0
KPD2 220902Z 25007G14KT 12/M01 A2963 RMK A01 T01201009  RH  041%=      5-min Rain = 0
KPD2 220903Z 25007KT 12/M01 A2963 RMK A01 T01201008  RH  041%=      5-min Rain = 0
KPD2 220904Z 25010KT 12/M01 A2963 RMK A01 T01191008  RH  041%=      5-min Rain = 0
KPD2 220905Z 25012KT 12/M01 A2963 RMK A01 T01191009  RH  041%=      5-min Rain = 0
KPD2 220906Z 26009G15KT 12/M01 A2963 RMK A01 T01191009  RH  041%=      5-min Rain = 0
KPD2 220907Z 25009KT 12/M01 A2963 RMK A01 T01191008  RH  041%=      5-min Rain = 0
KPD2 220908Z 26010G15KT 12/M01 A2963 RMK A01 T01191008  RH  041%=      5-min Rain = 0
KPD2 220909Z 25010KT 12/M01 A2963 RMK A01 T01181009  RH  042%=      5-min Rain = 0
KPD2 220910Z 24008KT 12/M01 A2963 RMK A01 T01181009  RH  042%=      5-min Rain = 0
KPD2 220911Z 25009KT 12/M01 A2963 RMK A01 T01171009  RH  042%=      5-min Rain = 0
KPD2 220912Z 25005G12KT 12/M01 A2963 RMK A01 T01171009  RH  042%=      5-min Rain = 0
KPD2 220913Z 25007KT 12/M01 A2963 RMK A01 T01161009  RH  042%=      5-min Rain = 0
KPD2 220914Z 25009KT 12/M01 A2963 RMK A01 T01161009  RH  042%=      5-min Rain = 0
KPD2 220915Z 27006KT 12/M01 A2963 RMK A01 T01151009  RH  042%=      5-min Rain = 0
KPD2 220916Z 28003G9KT 12/M01 A2963 RMK A01 T01151010  RH  042%=      5-min Rain = 0
KPD2 220917Z 28006KT 11/M01 A2963 RMK A01 T01141011  RH  042%=      5-min Rain = 0
KPD2 220918Z 30006KT 11/M01 A2963 RMK A01 T01131011  RH  042%=      5-min Rain = 0
KPD2 220919Z 33005KT 11/M01 A2963 RMK A01 T01121012  RH  042%=      5-min Rain = 0
KPD2 220920Z 34006KT 11/M01 A2963 RMK A01 T01121012  RH  042%=      5-min Rain = 0
KPD2 220921Z 33004KT 11/M01 A2963 RMK A01 T01111012  RH  042%=      5-min Rain = 0
KPD2 220922Z 31004KT 11/M01 A2963 RMK A01 T01111011  RH  043%=      5-min Rain = 0
KPD2 220923Z 30004KT 11/M01 A2963 RMK A01 T01111012  RH  042%=      5-min Rain = 0
KPD2 220924Z 31003KT 11/M01 A2963 RMK A01 T01111012  RH  042%=      5-min Rain = 0
KPD2 220925Z 30003KT 11/M01 A2963 RMK A01 T01101014  RH  042%=      5-min Rain = 0
KPD2 220926Z 30002KT 11/M01 A2963 RMK A01 T01091014  RH  042%=      5-min Rain = 0
KPD2 220927Z 35000KT 11/M01 A2963 RMK A01 T01091014  RH  043%=      5-min Rain = 0
KPD2 220928Z 29001KT 11/M01 A2963 RMK A01 T01091014  RH  043%=      5-min Rain = 0
KPD2 220929Z 32002KT 11/M01 A2963 RMK A01 T01091013  RH  043%=      5-min Rain = 0
KPD2 220930Z 35003KT 11/M01 A2964 RMK A01 T01091014  RH  042%=      5-min Rain = 0
KPD2 220931Z 35005KT 11/M02 A2964 RMK A01 T01071015  RH  042%=      5-min Rain = 0
KPD2 220932Z 34005KT 11/M02 A2964 RMK A01 T01061016  RH  042%=      5-min Rain = 0
KPD2 220933Z 34006KT 11/M02 A2964 RMK A01 T01051017  RH  043%=      5-min Rain = 0
KPD2 220934Z 34006KT 10/M02 A2964 RMK A01 T01041017  RH  043%=      5-min Rain = 0
KPD2 220935Z 35006KT 10/M02 A2964 RMK A01 T01041018  RH  043%=      5-min Rain = 0
KPD2 220936Z 34007KT 10/M02 A2964 RMK A01 T01041018  RH  043%=      5-min Rain = 0
KPD2 220937Z 35007KT 10/M02 A2964 RMK A01 T01031019  RH  042%=      5-min Rain = 0
KPD2 220938Z 34007KT 10/M02 A2964 RMK A01 T01041019  RH  042%=      5-min Rain = 0
KPD2 220939Z 34008KT 10/M02 A2964 RMK A01 T01041020  RH  042%=      5-min Rain = 0
KPD2 220940Z 34010KT 11/M02 A2964 RMK A01 T01051020  RH  042%=      5-min Rain = 0
KPD2 220941Z 34008KT 11/M02 A2964 RMK A01 T01051021  RH  041%=      5-min Rain = 0
KPD2 220942Z 35008KT 11/M02 A2964 RMK A01 T01051021  RH  042%=      5-min Rain = 0
KPD2 220943Z 33008KT 10/M02 A2964 RMK A01 T01041020  RH  042%=      5-min Rain = 0
KPD2 220944Z 34008KT 10/M02 A2964 RMK A01 T01041020  RH  042%=      5-min Rain = 0
KPD2 220945Z 36007KT 10/M02 A2964 RMK A01 T01041021  RH  042%=      5-min Rain = 0
KPD2 220946Z 34006KT 10/M02 A2965 RMK A01 T01041019  RH  042%=      5-min Rain = 0
KPD2 220947Z 35006KT 10/M02 A2965 RMK A01 T01031019  RH  043%=      5-min Rain = 0
KPD2 220948Z 36007KT 10/M02 A2965 RMK A01 T01011019  RH  043%=      5-min Rain = 0
KPD2 220949Z 34006KT 10/M02 A2964 RMK A01 T01011020  RH  043%=      5-min Rain = 0
KPD2 220950Z 35007KT 10/M02 A2965 RMK A01 T01001021  RH  043%=      5-min Rain = 0
KPD2 220951Z 34006KT 10/M02 A2964 RMK A01 T00991022  RH  043%=      5-min Rain = 0
KPD2 220952Z 34006KT 10/M02 A2964 RMK A01 T00991022  RH  043%=      5-min Rain = 0
KPD2 220953Z 33006KT 10/M02 A2964 RMK A01 T00991023  RH  043%=      5-min Rain = 0
KPD2 220954Z 33005KT 10/M02 A2965 RMK A01 T00991023  RH  043%=      5-min Rain = 0
KPD2 220955Z 31005KT 10/M02 A2965 RMK A01 T00981023  RH  043%=      5-min Rain = 0
KPD2 220956Z 32005KT 10/M02 A2965 RMK A01 T00971024  RH  043%=      5-min Rain = 0
KPD2 220957Z 33004KT 10/M02 A2965 RMK A01 T00971023  RH  043%=      5-min Rain = 0
KPD2 220958Z 34006KT 10/M02 A2965 RMK A01 T00961024  RH  043%=      5-min Rain = 0
KPD2 220959Z 34006KT 10/M03 A2965 RMK A01 T00961025  RH  043%=      5-min Rain = 0
KPD2 221000Z 34007KT 10/M03 A2965 RMK A01 T00951025  RH  043%=      5-min Rain = 0
KPD2 221001Z 34007KT 10/M03 A2965 RMK A01 T00951025  RH  043%=      5-min Rain = 0
KPD2 221002Z 34008KT 10/M03 A2965 RMK A01 T00951025  RH  043%=      5-min Rain = 0
KPD2 221003Z 35008KT 10/M03 A2965 RMK A01 T00951025  RH  043%=      5-min Rain = 0
KPD2 221004Z 34008KT 10/M03 A2965 RMK A01 T00961025  RH  043%=      5-min Rain = 0
KPD2 221005Z 34007KT 10/M03 A2966 RMK A01 T00961025  RH  043%=      5-min Rain = 0
KPD2 221006Z 33008KT 10/M03 A2966 RMK A01 T00951025  RH  043%=      5-min Rain = 0
KPD2 221007Z 34009KT 10/M03 A2966 RMK A01 T00951025  RH  043%=      5-min Rain = 0
KPD2 221008Z 34010KT 09/M03 A2966 RMK A01 T00941026  RH  043%=      5-min Rain = 0
KPD2 221009Z 33007KT 09/M03 A2966 RMK A01 T00941026  RH  043%=      5-min Rain = 0
KPD2 221010Z 32007KT 10/M03 A2966 RMK A01 T00951025  RH  043%=      5-min Rain = 0
KPD2 221011Z 32007KT 10/M03 A2966 RMK A01 T00951026  RH  043%=      5-min Rain = 0
KPD2 221012Z 33007KT 10/M03 A2966 RMK A01 T00951026  RH  043%=      5-min Rain = 0
KPD2 221013Z 32007KT 09/M03 A2966 RMK A01 T00941026  RH  043%=      5-min Rain = 0
KPD2 221014Z 31007KT 09/M03 A2966 RMK A01 T00941027  RH  043%=      5-min Rain = 0
KPD2 221015Z 31006KT 09/M03 A2966 RMK A01 T00931027  RH  043%=      5-min Rain = 0
KPD2 221016Z 29005KT 09/M03 A2966 RMK A01 T00931027  RH  043%=      5-min Rain = 0
KPD2 221017Z 30005KT 09/M03 A2966 RMK A01 T00921027  RH  043%=      5-min Rain = 0
KPD2 221018Z 30005KT 09/M03 A2966 RMK A01 T00891028  RH  044%=      5-min Rain = 0
KPD2 221019Z 30006KT 09/M03 A2967 RMK A01 T00871028  RH  044%=      5-min Rain = 0
KPD2 221020Z 30005KT 09/M03 A2967 RMK A01 T00851027  RH  045%=      5-min Rain = 0
KPD2 221021Z 30005KT 08/M03 A2967 RMK A01 T00831027  RH  046%=      5-min Rain = 0
KPD2 221022Z 30006KT 08/M03 A2967 RMK A01 T00821027  RH  046%=      5-min Rain = 0
KPD2 221023Z 31005KT 08/M03 A2967 RMK A01 T00811027  RH  047%=      5-min Rain = 0
KPD2 221024Z 31006KT 08/M03 A2967 RMK A01 T00801027  RH  047%=      5-min Rain = 0
KPD2 221025Z 30005KT 08/M03 A2967 RMK A01 T00791027  RH  047%=      5-min Rain = 0
KPD2 221026Z 31005KT 08/M03 A2967 RMK A01 T00781027  RH  047%=      5-min Rain = 0
KPD2 221027Z 30005KT 08/M03 A2967 RMK A01 T00771028  RH  047%=      5-min Rain = 0
KPD2 221028Z 31005KT 08/M03 A2967 RMK A01 T00761028  RH  048%=      5-min Rain = 0
KPD2 221029Z 31005KT 08/M03 A2967 RMK A01 T00751028  RH  048%=      5-min Rain = 0
KPD2 221030Z 31005KT 07/M03 A2967 RMK A01 T00741028  RH  048%=      5-min Rain = 0
KPD2 221031Z 30006KT 07/M03 A2967 RMK A01 T00731028  RH  049%=      5-min Rain = 0
KPD2 221032Z 31005KT 07/M03 A2967 RMK A01 T00731028  RH  049%=      5-min Rain = 0
KPD2 221033Z 32005KT 07/M03 A2967 RMK A01 T00731028  RH  049%=      5-min Rain = 0
KPD2 221034Z 32004KT 07/M03 A2967 RMK A01 T00721029  RH  049%=      5-min Rain = 0
KPD2 221035Z 32005KT 07/M03 A2967 RMK A01 T00721029  RH  049%=      5-min Rain = 0
KPD2 221036Z 32006KT 07/M03 A2967 RMK A01 T00711029  RH  049%=      5-min Rain = 0
KPD2 221037Z 32006KT 07/M03 A2967 RMK A01 T00701029  RH  049%=      5-min Rain = 0
KPD2 221038Z 32006KT 07/M03 A2967 RMK A01 T00701029  RH  049%=      5-min Rain = 0
KPD2 221039Z 32006KT 07/M03 A2967 RMK A01 T00701029  RH  049%=      5-min Rain = 0
KPD2 221040Z 31005KT 07/M03 A2967 RMK A01 T00701029  RH  049%=      5-min Rain = 0
KPD2 221041Z 32005KT 07/M03 A2967 RMK A01 T00701029  RH  049%=      5-min Rain = 0
KPD2 221042Z 31006KT 07/M03 A2967 RMK A01 T00701029  RH  049%=      5-min Rain = 0
KPD2 221043Z 31005KT 07/M03 A2967 RMK A01 T00701029  RH  049%=      5-min Rain = 0
KPD2 221044Z 31006KT 07/M03 A2967 RMK A01 T00701029  RH  049%=      5-min Rain = 0
KPD2 221045Z 30006KT 07/M03 A2967 RMK A01 T00701029  RH  049%=      5-min Rain = 0
KPD2 221046Z 30006KT 07/M03 A2967 RMK A01 T00691029  RH  049%=      5-min Rain = 0
KPD2 221047Z 30007KT 07/M03 A2967 RMK A01 T00691030  RH  049%=      5-min Rain = 0
KPD2 221048Z 29006KT 07/M03 A2967 RMK A01 T00691029  RH  050%=      5-min Rain = 0
KPD2 221049Z 29006KT 07/M03 A2967 RMK A01 T00681029  RH  050%=      5-min Rain = 0
KPD2 221050Z 30007KT 07/M03 A2967 RMK A01 T00681029  RH  050%=      5-min Rain = 0
KPD2 221051Z 30006KT 07/M03 A2967 RMK A01 T00681029  RH  050%=      5-min Rain = 0
KPD2 221052Z 29007KT 07/M03 A2967 RMK A01 T00671029  RH  050%=      5-min Rain = 0
KPD2 221053Z 29006KT 07/M03 A2967 RMK A01 T00671030  RH  050%=      5-min Rain = 0
KPD2 221054Z 29005KT 07/M03 A2967 RMK A01 T00671029  RH  050%=      5-min Rain = 0
KPD2 221055Z 30005KT 07/M03 A2967 RMK A01 T00661030  RH  050%=      5-min Rain = 0
KPD2 221056Z 31004KT 07/M03 A2967 RMK A01 T00651030  RH  051%=      5-min Rain = 0
KPD2 221057Z 30004KT 07/M03 A2967 RMK A01 T00651030  RH  051%=      5-min Rain = 0
KPD2 221058Z 30005KT 06/M03 A2967 RMK A01 T00641030  RH  051%=      5-min Rain = 0
KPD2 221059Z 30005KT 06/M03 A2967 RMK A01 T00631031  RH  051%=      5-min Rain = 0
KPD2 221100Z 31004KT 06/M03 A2967 RMK A01 T00631030  RH  051%=      5-min Rain = 0
KPD2 221101Z 31004KT 06/M03 A2967 RMK A01 T00631030  RH  051%=      5-min Rain = 0
KPD2 221102Z 32004KT 06/M03 A2967 RMK A01 T00621030  RH  052%=      5-min Rain = 0
KPD2 221103Z 32004KT 06/M03 A2967 RMK A01 T00611031  RH  052%=      5-min Rain = 0
KPD2 221104Z 32005KT 06/M03 A2967 RMK A01 T00601030  RH  052%=      5-min Rain = 0
KPD2 221105Z 32004KT 06/M03 A2967 RMK A01 T00601030  RH  052%=      5-min Rain = 0
KPD2 221106Z 32005KT 06/M03 A2967 RMK A01 T00591031  RH  052%=      5-min Rain = 0
KPD2 221107Z 33006KT 06/M03 A2968 RMK A01 T00591030  RH  053%=      5-min Rain = 0
KPD2 221108Z 32006KT 06/M03 A2968 RMK A01 T00591030  RH  053%=      5-min Rain = 0
KPD2 221109Z 32006KT 06/M03 A2968 RMK A01 T00591030  RH  053%=      5-min Rain = 0
KPD2 221110Z 32006KT 06/M03 A2968 RMK A01 T00591030  RH  053%=      5-min Rain = 0
KPD2 221111Z 32005KT 06/M03 A2968 RMK A01 T00591030  RH  053%=      5-min Rain = 0
KPD2 221112Z 31005KT 06/M03 A2968 RMK A01 T00591030  RH  053%=      5-min Rain = 0
KPD2 221113Z 32005KT 06/M03 A2968 RMK A01 T00601030  RH  053%=      5-min Rain = 0
KPD2 221114Z 31005KT 06/M03 A2968 RMK A01 T00601030  RH  053%=      5-min Rain = 0
KPD2 221115Z 32004KT 06/M03 A2968 RMK A01 T00601030  RH  052%=      5-min Rain = 0
KPD2 221116Z 32005KT 06/M03 A2968 RMK A01 T00601030  RH  053%=      5-min Rain = 0
KPD2 221117Z 33005KT 06/M03 A2968 RMK A01 T00591030  RH  053%=      5-min Rain = 0
KPD2 221118Z 33006KT 06/M03 A2968 RMK A01 T00591030  RH  053%=      5-min Rain = 0
KPD2 221119Z 33006KT 06/M03 A2968 RMK A01 T00591030  RH  053%=      5-min Rain = 0
KPD2 221120Z 33006KT 06/M03 A2968 RMK A01 T00581030  RH  053%=      5-min Rain = 0
KPD2 221121Z 33007KT 06/M03 A2968 RMK A01 T00581030  RH  053%=      5-min Rain = 0
KPD2 221122Z 33006KT 06/M03 A2968 RMK A01 T00591029  RH  053%=      5-min Rain = 0
KPD2 221123Z 33006KT 06/M03 A2968 RMK A01 T00601029  RH  053%=      5-min Rain = 0
KPD2 221124Z 32005KT 06/M03 A2968 RMK A01 T00601029  RH  053%=      5-min Rain = 0
KPD2 221125Z 33005KT 06/M03 A2968 RMK A01 T00601030  RH  053%=      5-min Rain = 0
KPD2 221126Z 33006KT 06/M03 A2968 RMK A01 T00601029  RH  053%=      5-min Rain = 0
KPD2 221127Z 33005KT 06/M03 A2968 RMK A01 T00601029  RH  053%=      5-min Rain = 0
KPD2 221128Z 33005KT 06/M03 A2968 RMK A01 T00601029  RH  053%=      5-min Rain = 0
KPD2 221129Z 33005KT 06/M03 A2968 RMK A01 T00601030  RH  052%=      5-min Rain = 0
KPD2 221130Z 32005KT 06/M03 A2968 RMK A01 T00611029  RH  052%=      5-min Rain = 0
KPD2 221131Z 33005KT 06/M03 A2968 RMK A01 T00611030  RH  052%=      5-min Rain = 0
KPD2 221132Z 33005KT 06/M03 A2968 RMK A01 T00601030  RH  052%=      5-min Rain = 0
KPD2 221133Z 34005KT 06/M03 A2968 RMK A01 T00601030  RH  052%=      5-min Rain = 0
KPD2 221134Z 33006KT 06/M03 A2968 RMK A01 T00601030  RH  053%=      5-min Rain = 0
KPD2 221135Z 33006KT 06/M03 A2968 RMK A01 T00601030  RH  053%=      5-min Rain = 0
KPD2 221136Z 33006KT 06/M03 A2969 RMK A01 T00611029  RH  053%=      5-min Rain = 0
KPD2 221137Z 32005KT 06/M03 A2969 RMK A01 T00611029  RH  052%=      5-min Rain = 0
KPD2 221138Z 32005KT 06/M03 A2969 RMK A01 T00631029  RH  052%=      5-min Rain = 0
KPD2 221139Z 32005KT 06/M03 A2969 RMK A01 T00631029  RH  052%=      5-min Rain = 0
KPD2 221140Z 33005KT 06/M03 A2969 RMK A01 T00631030  RH  052%=      5-min Rain = 0
KPD2 221141Z 32005KT 06/M03 A2968 RMK A01 T00631030  RH  052%=      5-min Rain = 0
KPD2 221142Z 32004KT 06/M03 A2968 RMK A01 T00621030  RH  052%=      5-min Rain = 0
KPD2 221143Z 32005KT 06/M03 A2968 RMK A01 T00611030  RH  052%=      5-min Rain = 0
KPD2 221144Z 33005KT 06/M03 A2968 RMK A01 T00601030  RH  052%=      5-min Rain = 0
KPD2 221145Z 33004KT 06/M03 A2968 RMK A01 T00591031  RH  052%=      5-min Rain = 0
KPD2 221146Z 33005KT 06/M03 A2968 RMK A01 T00581031  RH  053%=      5-min Rain = 0
KPD2 221147Z 32005KT 06/M03 A2968 RMK A01 T00581031  RH  053%=      5-min Rain = 0
KPD2 221148Z 32005KT 06/M03 A2968 RMK A01 T00571031  RH  053%=      5-min Rain = 0
KPD2 221149Z 32005KT 06/M03 A2968 RMK A01 T00581030  RH  053%=      5-min Rain = 0
KPD2 221150Z 33005KT 06/M03 A2967 RMK A01 T00581030  RH  053%=      5-min Rain = 0
KPD2 221151Z 32005KT 06/M03 A2967 RMK A01 T00581031  RH  053%=      5-min Rain = 0
KPD2 221152Z 33005KT 06/M03 A2967 RMK A01 T00571031  RH  053%=      5-min Rain = 0
KPD2 221153Z 32005KT 06/M03 A2968 RMK A01 T00571031  RH  053%=      5-min Rain = 0
KPD2 221154Z 32005KT 06/M03 A2968 RMK A01 T00571030  RH  053%=      5-min Rain = 0
KPD2 221155Z 33004KT 06/M03 A2968 RMK A01 T00571030  RH  053%=      5-min Rain = 0
KPD2 221156Z 32004KT 06/M03 A2968 RMK A01 T00571031  RH  053%=      5-min Rain = 0
KPD2 221157Z 33005KT 06/M03 A2968 RMK A01 T00561031  RH  053%=      5-min Rain = 0
KPD2 221158Z 33005KT 06/M03 A2968 RMK A01 T00561031  RH  054%=      5-min Rain = 0
KPD2 221159Z 34005KT 06/M03 A2968 RMK A01 T00551031  RH  054%=      5-min Rain = 0
KPD2 221200Z 33005KT 06/M03 A2968 RMK A01 T00561030  RH  054%=      5-min Rain = 0
KPD2 221201Z 34005KT 06/M03 A2968 RMK A01 T00551031  RH  054%=      5-min Rain = 0
KPD2 221202Z 35005KT 05/M03 A2968 RMK A01 T00541031  RH  054%=      5-min Rain = 0
KPD2 221203Z 34005KT 05/M03 A2968 RMK A01 T00541031  RH  054%=      5-min Rain = 0
KPD2 221204Z 35005KT 05/M03 A2968 RMK A01 T00541030  RH  054%=      5-min Rain = 0
KPD2 221205Z 34005KT 05/M03 A2968 RMK A01 T00541030  RH  054%=      5-min Rain = 0
KPD2 221206Z 33006KT 05/M03 A2968 RMK A01 T00541030  RH  054%=      5-min Rain = 0
KPD2 221207Z 34005KT 06/M03 A2968 RMK A01 T00551030  RH  054%=      5-min Rain = 0
KPD2 221208Z 33006KT 06/M03 A2968 RMK A01 T00551030  RH  054%=      5-min Rain = 0
KPD2 221209Z 34005KT 06/M03 A2968 RMK A01 T00551031  RH  054%=      5-min Rain = 0
KPD2 221210Z 33005KT 05/M03 A2968 RMK A01 T00541031  RH  054%=      5-min Rain = 0
KPD2 221211Z 34006KT 05/M03 A2968 RMK A01 T00541031  RH  054%=      5-min Rain = 0
KPD2 221212Z 34005KT 05/M03 A2968 RMK A01 T00541031  RH  054%=      5-min Rain = 0
KPD2 221213Z 32005KT 05/M03 A2968 RMK A01 T00541031  RH  054%=      5-min Rain = 0
KPD2 221214Z 33005KT 05/M03 A2968 RMK A01 T00541031  RH  054%=      5-min Rain = 0
KPD2 221215Z 32006KT 05/M03 A2968 RMK A01 T00531032  RH  054%=      5-min Rain = 0
KPD2 221216Z 32006KT 05/M03 A2968 RMK A01 T00531031  RH  055%=      5-min Rain = 0
KPD2 221217Z 32005KT 05/M03 A2968 RMK A01 T00531031  RH  055%=      5-min Rain = 0
KPD2 221218Z 31005KT 05/M03 A2968 RMK A01 T00541031  RH  054%=      5-min Rain = 0
KPD2 221219Z 31004KT 05/M03 A2968 RMK A01 T00541031  RH  054%=      5-min Rain = 0
KPD2 221220Z 31004KT 05/M03 A2968 RMK A01 T00531031  RH  055%=      5-min Rain = 0
KPD2 221221Z 32003KT 05/M03 A2968 RMK A01 T00531031  RH  055%=      5-min Rain = 0
KPD2 221222Z 32004KT 05/M03 A2968 RMK A01 T00531031  RH  055%=      5-min Rain = 0
KPD2 221223Z 30003KT 05/M03 A2969 RMK A01 T00521031  RH  055%=      5-min Rain = 0
KPD2 221224Z 31003KT 05/M03 A2969 RMK A01 T00521032  RH  055%=      5-min Rain = 0
KPD2 221225Z 31003KT 05/M03 A2969 RMK A01 T00511032  RH  055%=      5-min Rain = 0
KPD2 221226Z 34003KT 05/M03 A2969 RMK A01 T00501032  RH  055%=      5-min Rain = 0
KPD2 221227Z 35004KT 05/M03 A2969 RMK A01 T00501032  RH  056%=      5-min Rain = 0
KPD2 221228Z 35003KT 05/M03 A2969 RMK A01 T00491032  RH  056%=      5-min Rain = 0
KPD2 221229Z 35003KT 05/M03 A2969 RMK A01 T00491032  RH  056%=      5-min Rain = 0
KPD2 221230Z 33004KT 05/M03 A2969 RMK A01 T00481033  RH  056%=      5-min Rain = 0
KPD2 221231Z 31003KT 05/M03 A2969 RMK A01 T00481032  RH  056%=      5-min Rain = 0
KPD2 221232Z 31003KT 05/M03 A2969 RMK A01 T00481032  RH  056%=      5-min Rain = 0
KPD2 221233Z 30002KT 05/M03 A2969 RMK A01 T00481032  RH  056%=      5-min Rain = 0
KPD2 221234Z 30002KT 05/M03 A2969 RMK A01 T00461033  RH  056%=      5-min Rain = 0
KPD2 221235Z 31002KT 05/M03 A2969 RMK A01 T00461033  RH  057%=      5-min Rain = 0
KPD2 221236Z 31002KT 05/M03 A2969 RMK A01 T00451033  RH  057%=      5-min Rain = 0
KPD2 221237Z 31002KT 04/M03 A2969 RMK A01 T00441033  RH  057%=      5-min Rain = 0
KPD2 221238Z 31002KT 04/M03 A2969 RMK A01 T00441033  RH  057%=      5-min Rain = 0
KPD2 221239Z 30002KT 04/M03 A2969 RMK A01 T00431034  RH  057%=      5-min Rain = 0
KPD2 221240Z 29002KT 04/M03 A2969 RMK A01 T00421034  RH  057%=      5-min Rain = 0
KPD2 221241Z 28002KT 04/M03 A2969 RMK A01 T00421034  RH  058%=      5-min Rain = 0
KPD2 221242Z 27002KT 04/M03 A2969 RMK A01 T00411034  RH  058%=      5-min Rain = 0
KPD2 221243Z 25002KT 04/M04 A2969 RMK A01 T00401035  RH  058%=      5-min Rain = 0
KPD2 221244Z 27002KT 04/M04 A2969 RMK A01 T00391035  RH  059%=      5-min Rain = 0
KPD2 221245Z 26002KT 04/M04 A2969 RMK A01 T00381035  RH  059%=      5-min Rain = 0
KPD2 221246Z 28002KT 04/M03 A2969 RMK A01 T00371034  RH  060%=      5-min Rain = 0
KPD2 221247Z 28002KT 04/M03 A2969 RMK A01 T00371034  RH  060%=      5-min Rain = 0
KPD2 221248Z 28002KT 04/M03 A2969 RMK A01 T00361034  RH  060%=      5-min Rain = 0
KPD2 221249Z 28002KT 04/M03 A2969 RMK A01 T00361034  RH  060%=      5-min Rain = 0
KPD2 221250Z 29002KT 04/M03 A2969 RMK A01 T00351034  RH  060%=      5-min Rain = 0
KPD2 221251Z 29003KT 04/M03 A2969 RMK A01 T00351034  RH  061%=      5-min Rain = 0
KPD2 221252Z 30002KT 03/M04 A2969 RMK A01 T00341035  RH  061%=      5-min Rain = 0
KPD2 221253Z 34002KT 03/M04 A2969 RMK A01 T00331035  RH  061%=      5-min Rain = 0
KPD2 221254Z 32003KT 03/M04 A297 RMK A01 T00321035  RH  061%=      5-min Rain = 0
KPD2 221255Z 32004KT 03/M04 A297 RMK A01 T00321035  RH  062%=      5-min Rain = 0
KPD2 221256Z 33004KT 03/M04 A297 RMK A01 T00321035  RH  062%=      5-min Rain = 0
KPD2 221257Z 34004KT 03/M04 A297 RMK A01 T00321035  RH  062%=      5-min Rain = 0
KPD2 221258Z 34004KT 03/M04 A297 RMK A01 T00311035  RH  062%=      5-min Rain = 0
KPD2 221259Z 34003KT 03/M04 A297 RMK A01 T00311035  RH  062%=      5-min Rain = 0
KPD2 221300Z 00003KT 03/M04 A297 RMK A01 T00311035  RH  062%=      5-min Rain = 0
KPD2 221301Z 00003KT 03/M04 A297 RMK A01 T00311035  RH  062%=      5-min Rain = 0
KPD2 221302Z 00003KT 03/M04 A297 RMK A01 T00321035  RH  061%=      5-min Rain = 0
KPD2 221303Z 34003KT 03/M04 A297 RMK A01 T00311037  RH  061%=      5-min Rain = 0
KPD2 221304Z 33003KT 03/M04 A297 RMK A01 T00301039  RH  060%=      5-min Rain = 0
KPD2 221305Z 32003KT 03/M04 A297 RMK A01 T00301037  RH  061%=      5-min Rain = 0
KPD2 221306Z 33004KT 03/M04 A297 RMK A01 T00301037  RH  061%=      5-min Rain = 0
KPD2 221307Z 30002KT 03/M04 A297 RMK A01 T00301039  RH  061%=      5-min Rain = 0
KPD2 221308Z 31003KT 03/M04 A297 RMK A01 T00301038  RH  061%=      5-min Rain = 0
KPD2 221309Z 34004KT 03/M04 A297 RMK A01 T00301037  RH  061%=      5-min Rain = 0
KPD2 221310Z 34005KT 03/M04 A297 RMK A01 T00301038  RH  061%=      5-min Rain = 0
KPD2 221311Z 34004KT 03/M04 A297 RMK A01 T00311039  RH  060%=      5-min Rain = 0
KPD2 221312Z 32003KT 03/M04 A2971 RMK A01 T00311040  RH  060%=      5-min Rain = 0
KPD2 221313Z 30004KT 03/M04 A2971 RMK A01 T00301040  RH  060%=      5-min Rain = 0
KPD2 221314Z 29003KT 03/M04 A2971 RMK A01 T00291040  RH  061%=      5-min Rain = 0
KPD2 221315Z 31004KT 03/M04 A2971 RMK A01 T00281039  RH  061%=      5-min Rain = 0
KPD2 221316Z 32004KT 03/M04 A2971 RMK A01 T00271038  RH  062%=      5-min Rain = 0
KPD2 221317Z 32004KT 03/M04 A2971 RMK A01 T00271038  RH  062%=      5-min Rain = 0
KPD2 221318Z 31004KT 03/M04 A2971 RMK A01 T00261038  RH  062%=      5-min Rain = 0
KPD2 221319Z 32004KT 03/M04 A2971 RMK A01 T00261038  RH  063%=      5-min Rain = 0
KPD2 221320Z 33004KT 03/M04 A2971 RMK A01 T00261037  RH  063%=      5-min Rain = 0
KPD2 221321Z 33005KT 03/M04 A2971 RMK A01 T00261038  RH  063%=      5-min Rain = 0
KPD2 221322Z 34005KT 03/M04 A2971 RMK A01 T00251038  RH  063%=      5-min Rain = 0
KPD2 221323Z 34006KT 03/M04 A2971 RMK A01 T00261038  RH  063%=      5-min Rain = 0
KPD2 221324Z 33006KT 03/M04 A2971 RMK A01 T00291037  RH  062%=      5-min Rain = 0
KPD2 221325Z 33006KT 03/M04 A2971 RMK A01 T00321036  RH  061%=      5-min Rain = 0
KPD2 221326Z 33007KT 04/M04 A2971 RMK A01 T00361035  RH  060%=      5-min Rain = 0
KPD2 221327Z 33007KT 04/M03 A2972 RMK A01 T00401034  RH  059%=      5-min Rain = 0
KPD2 221328Z 33006KT 04/M03 A2972 RMK A01 T00431034  RH  057%=      5-min Rain = 0
KPD2 221329Z 32007KT 05/M04 A2972 RMK A01 T00451035  RH  056%=      5-min Rain = 0
KPD2 221330Z 31007KT 05/M04 A2972 RMK A01 T00471036  RH  055%=      5-min Rain = 0
KPD2 221331Z 33009G15KT 05/M04 A2973 RMK A01 T00491036  RH  054%=      5-min Rain = 0
KPD2 221332Z 34020G28KT 05/M04 A2974 RMK A01 T00521039  RH  052%=      5-min Rain = 0
KPD2 221333Z 34022G27KT 06/M04 A2975 RMK A01 T00581040  RH  049%=      5-min Rain = 0
KPD2 221334Z 35019G24KT 06/M04 A2975 RMK A01 T00581038  RH  050%=      5-min Rain = 0
KPD2 221335Z 34019KT 05/M04 A2975 RMK A01 T00531037  RH  052%=      5-min Rain = 0
KPD2 221336Z 34019KT 05/M04 A2975 RMK A01 T00461036  RH  055%=      5-min Rain = 0
KPD2 221337Z 34014G20KT 04/M04 A2975 RMK A01 T00411035  RH  058%=      5-min Rain = 0
KPD2 221338Z 35013KT 04/M03 A2976 RMK A01 T00381033  RH  060%=      5-min Rain = 0
KPD2 221339Z 36010KT 04/M03 A2976 RMK A01 T00351032  RH  062%=      5-min Rain = 0
KPD2 221340Z 34009KT 03/M03 A2976 RMK A01 T00331031  RH  063%=      5-min Rain = 0
KPD2 221341Z 33013G18KT 03/M03 A2976 RMK A01 T00321030  RH  064%=      5-min Rain = 0
KPD2 221342Z 33017KT 03/M03 A2977 RMK A01 T00301029  RH  065%=      5-min Rain = 0
KPD2 221343Z 35014G19KT 03/M03 A2977 RMK A01 T00281028  RH  067%=      5-min Rain = 0
KPD2 221344Z 34011KT 03/M03 A2977 RMK A01 T00271027  RH  068%=      5-min Rain = 0
KPD2 221345Z 34012G17KT 03/M03 A2978 RMK A01 T00261026  RH  069%=      5-min Rain = 0
KPD2 221346Z 35013KT 02/M03 A2978 RMK A01 T00241026  RH  070%=      5-min Rain = 0
KPD2 221347Z 35008KT 02/M03 A2978 RMK A01 T00231025  RH  071%=      5-min Rain = 0
KPD2 221348Z 32005KT 02/M03 A2978 RMK A01 T00221025  RH  071%=      5-min Rain = 0
KPD2 221349Z 33005KT 02/M02 A2978 RMK A01 T00221024  RH  072%=      5-min Rain = 0
KPD2 221350Z 31006KT 02/M02 A2979 RMK A01 T00211024  RH  072%=      5-min Rain = 0
KPD2 221351Z 29004KT 02/M02 A2979 RMK A01 T00211023  RH  073%=      5-min Rain = 0
KPD2 221352Z 32008KT 02/M02 A2979 RMK A01 T00201022  RH  073%=      5-min Rain = 0
KPD2 221353Z 31006KT 02/M02 A2979 RMK A01 T00201022  RH  074%=      5-min Rain = 0
KPD2 221354Z 28007KT 02/M02 A2979 RMK A01 T00191021  RH  075%=      5-min Rain = 0
KPD2 221355Z 31006KT 02/M02 A2979 RMK A01 T00181021  RH  075%=      5-min Rain = 0
KPD2 221356Z 31008KT 02/M02 A2979 RMK A01 T00181020  RH  076%=      5-min Rain = 0
KPD2 221357Z 30008KT 02/M02 A2979 RMK A01 T00171020  RH  076%=      5-min Rain = 0
KPD2 221358Z 28005KT 02/M02 A2979 RMK A01 T00171019  RH  077%=      5-min Rain = 0
KPD2 221359Z 30005KT 02/M02 A2979 RMK A01 T00171018  RH  078%=      5-min Rain = 0
KPD2 221400Z 30006G12KT 02/M02 A2979 RMK A01 T00161018  RH  078%=      5-min Rain = 0
KPD2 221401Z 31010KT 02/M02 A2979 RMK A01 T00161018  RH  078%=      5-min Rain = 0
KPD2 221402Z 34013KT 02/M02 A2979 RMK A01 T00161017  RH  078%=      5-min Rain = 0
KPD2 221403Z 32010G15KT 02/M02 A298 RMK A01 T00161016  RH  079%=      5-min Rain = 0
KPD2 221404Z 34007KT 02/M02 A298 RMK A01 T00161016  RH  079%=      5-min Rain = 0
KPD2 221405Z 29007KT 02/M02 A298 RMK A01 T00161016  RH  079%=      5-min Rain = 0
KPD2 221406Z 30009KT 02/M02 A298 RMK A01 T00161016  RH  079%=      5-min Rain = 0
KPD2 221407Z 33007G13KT 02/M02 A298 RMK A01 T00171015  RH  079%=      5-min Rain = 0
KPD2 221408Z 31007KT 02/M02 A298 RMK A01 T00171015  RH  080%=      5-min Rain = 0
KPD2 221409Z 32008KT 02/M01 A298 RMK A01 T00171014  RH  080%=      5-min Rain = 0
KPD2 221410Z 30011G17KT 02/M01 A298 RMK A01 T00171014  RH  080%=      5-min Rain = 0
KPD2 221411Z 30008G13KT 02/M01 A298 RMK A01 T00171014  RH  080%=      5-min Rain = 0
KPD2 221412Z 32009KT 02/M01 A2981 RMK A01 T00171014  RH  080%=      5-min Rain = 0
KPD2 221413Z 34008G13KT 02/M01 A2981 RMK A01 T00181013  RH  080%=      5-min Rain = 0
KPD2 221414Z 32007G12KT 02/M01 A2981 RMK A01 T00181013  RH  080%=      5-min Rain = 0
KPD2 221415Z 31008KT 02/M01 A2981 RMK A01 T00181014  RH  080%=      5-min Rain = 0
KPD2 221416Z 32008KT 02/M01 A2981 RMK A01 T00181013  RH  080%=      5-min Rain = 0
KPD2 221417Z 32007KT 02/M01 A2981 RMK A01 T00181013  RH  080%=      5-min Rain = 0
KPD2 221418Z 34007KT 02/M01 A2981 RMK A01 T00181013  RH  080%=      5-min Rain = 0
KPD2 221419Z 31010KT 02/M01 A2981 RMK A01 T00181014  RH  079%=      5-min Rain = 0
KPD2 221420Z 32011KT 02/M01 A2981 RMK A01 T00181014  RH  079%=      5-min Rain = 0
KPD2 221421Z 32011G17KT 02/M01 A2981 RMK A01 T00181014  RH  079%=      5-min Rain = 0
KPD2 221422Z 32013G20KT 02/M01 A2982 RMK A01 T00181014  RH  079%=      5-min Rain = 0
KPD2 221423Z 33012G17KT 02/M01 A2982 RMK A01 T00181014  RH  079%=      5-min Rain = 0
KPD2 221424Z 33011G16KT 02/M02 A2982 RMK A01 T00171015  RH  079%=      5-min Rain = 0
KPD2 221425Z 34013G19KT 02/M02 A2982 RMK A01 T00171015  RH  080%=      5-min Rain = 0
KPD2 221426Z 33013G20KT 02/M01 A2981 RMK A01 T00171014  RH  080%=      5-min Rain = 0
KPD2 221427Z 33013G18KT 02/M02 A2981 RMK A01 T00171015  RH  079%=      5-min Rain = 0
KPD2 221428Z 31015G22KT 02/M02 A2982 RMK A01 T00161016  RH  079%=      5-min Rain = 0
KPD2 221429Z 33010G17KT 02/M02 A2982 RMK A01 T00161016  RH  079%=      5-min Rain = 0
KPD2 221430Z 33016G22KT 02/M02 A2982 RMK A01 T00161016  RH  079%=      5-min Rain = 0
KPD2 221431Z 34012KT 02/M02 A2982 RMK A01 T00151017  RH  079%=      5-min Rain = 0
KPD2 221432Z 35014G22KT 02/M02 A2982 RMK A01 T00151017  RH  079%=      5-min Rain = 0
KPD2 221433Z 33013G19KT 01/M02 A2982 RMK A01 T00141018  RH  079%=      5-min Rain = 0
KPD2 221434Z 33008KT 01/M02 A2982 RMK A01 T00141018  RH  079%=      5-min Rain = 0
KPD2 221435Z 31007KT 01/M02 A2982 RMK A01 T00141018  RH  079%=      5-min Rain = 0
KPD2 221436Z 32011G17KT 02/M02 A2982 RMK A01 T00151018  RH  079%=      5-min Rain = 0
KPD2 221437Z 34013G20KT 02/M02 A2983 RMK A01 T00151018  RH  079%=      5-min Rain = 0
KPD2 221438Z 35011G16KT 01/M02 A2982 RMK A01 T00141018  RH  079%=      5-min Rain = 0
KPD2 221439Z 33010G16KT 01/M02 A2983 RMK A01 T00141019  RH  079%=      5-min Rain = 0
KPD2 221440Z 33014G20KT 02/M02 A2982 RMK A01 T00151019  RH  079%=      5-min Rain = 0
KPD2 221441Z 34016G21KT 01/M02 A2983 RMK A01 T00141019  RH  078%=      5-min Rain = 0
KPD2 221442Z 33014KT 01/M02 A2983 RMK A01 T00141020  RH  078%=      5-min Rain = 0
KPD2 221443Z 31011G16KT 01/M02 A2983 RMK A01 T00141020  RH  078%=      5-min Rain = 0
KPD2 221444Z 31015G20KT 01/M02 A2983 RMK A01 T00131020  RH  078%=      5-min Rain = 0
KPD2 221445Z 34012G20KT 01/M02 A2984 RMK A01 T00131021  RH  078%=      5-min Rain = 0
KPD2 221446Z 34015G20KT 01/M02 A2984 RMK A01 T00131021  RH  078%=      5-min Rain = 0
KPD2 221447Z 34016G23KT 01/M02 A2984 RMK A01 T00131021  RH  078%=      5-min Rain = 0
KPD2 221448Z 33010KT 01/M02 A2984 RMK A01 T00131021  RH  078%=      5-min Rain = 0
KPD2 221449Z 32013G19KT 01/M02 A2984 RMK A01 T00131021  RH  078%=      5-min Rain = 0
KPD2 221450Z 32014KT 01/M02 A2984 RMK A01 T00131021  RH  078%=      5-min Rain = 0
KPD2 221451Z 31017KT 01/M02 A2984 RMK A01 T00131022  RH  078%=      5-min Rain = 0
KPD2 221452Z 33020KT 01/M02 A2984 RMK A01 T00121023  RH  077%=      5-min Rain = 0
KPD2 221453Z 34019G25KT 01/M02 A2984 RMK A01 T00121023  RH  077%=      5-min Rain = 0
KPD2 221454Z 33011KT 01/M02 A2984 RMK A01 T00111023  RH  078%=      5-min Rain = 0
KPD2 221455Z 33010KT 01/M02 A2984 RMK A01 T00111023  RH  078%=      5-min Rain = 0
KPD2 221456Z 32010KT 01/M02 A2984 RMK A01 T00111023  RH  078%=      5-min Rain = 0
KPD2 221457Z 31008KT 01/M02 A2984 RMK A01 T00111024  RH  078%=      5-min Rain = 0
KPD2 221458Z 32013G22KT 01/M02 A2984 RMK A01 T00111024  RH  078%=      5-min Rain = 0
KPD2 221459Z 32014G23KT 01/M02 A2984 RMK A01 T00111024  RH  078%=      5-min Rain = 0
KPD2 221500Z 32012KT 01/M02 A2985 RMK A01 T00121024  RH  077%=      5-min Rain = 0
KPD2 221501Z 32015G20KT 01/M02 A2984 RMK A01 T00121024  RH  077%=      5-min Rain = 0
KPD2 221502Z 33013G18KT 01/M02 A2985 RMK A01 T00121024  RH  077%=      5-min Rain = 0
KPD2 221503Z 31012G18KT 01/M02 A2985 RMK A01 T00121024  RH  077%=      5-min Rain = 0
KPD2 221504Z 31010KT 01/M03 A2985 RMK A01 T00121025  RH  077%=      5-min Rain = 0
KPD2 221505Z 32009G14KT 01/M03 A2985 RMK A01 T00121025  RH  077%=      5-min Rain = 0
KPD2 221506Z 31014KT 01/M02 A2985 RMK A01 T00121024  RH  077%=      5-min Rain = 0
KPD2 221507Z 32013KT 01/M03 A2985 RMK A01 T00121025  RH  076%=      5-min Rain = 0
KPD2 221508Z 29010KT 01/M03 A2985 RMK A01 T00121025  RH  076%=      5-min Rain = 0
KPD2 221509Z 31008G15KT 01/M03 A2985 RMK A01 T00121025  RH  076%=      5-min Rain = 0
KPD2 221510Z 31010KT 01/M03 A2985 RMK A01 T00121025  RH  076%=      5-min Rain = 0
KPD2 221511Z 31015G22KT 01/M03 A2985 RMK A01 T00121026  RH  076%=      5-min Rain = 0
KPD2 221512Z 32014G20KT 01/M03 A2985 RMK A01 T00121028  RH  075%=      5-min Rain = 0
KPD2 221513Z 32016G22KT 01/M03 A2985 RMK A01 T00111029  RH  075%=      5-min Rain = 0
KPD2 221514Z 32014G22KT 01/M03 A2986 RMK A01 T00111029  RH  075%=      5-min Rain = 0
KPD2 221515Z 32015G22KT 01/M03 A2986 RMK A01 T00111030  RH  074%=      5-min Rain = 0
KPD2 221516Z 32015G21KT 01/M03 A2986 RMK A01 T00101031  RH  074%=      5-min Rain = 0
KPD2 221517Z 32008KT 01/M03 A2987 RMK A01 T00091032  RH  074%=      5-min Rain = 0
KPD2 221518Z 31010G16KT 01/M03 A2987 RMK A01 T00091031  RH  074%=      5-min Rain = 0
KPD2 221519Z 31014KT 01/M03 A2987 RMK A01 T00091032  RH  074%=      5-min Rain = 0
KPD2 221520Z 32014G20KT 01/M03 A2987 RMK A01 T00091033  RH  074%=      5-min Rain = 0
KPD2 221521Z 32010KT 01/M03 A2987 RMK A01 T00081033  RH  074%=      5-min Rain = 0
KPD2 221522Z 31010KT 01/M03 A2988 RMK A01 T00081034  RH  074%=      5-min Rain = 0
KPD2 221523Z 31011KT 01/M03 A2988 RMK A01 T00081034  RH  074%=      5-min Rain = 0
KPD2 221524Z 31009KT 01/M03 A2988 RMK A01 T00081034  RH  074%=      5-min Rain = 0
KPD2 221525Z 31012KT 01/M03 A2988 RMK A01 T00071034  RH  074%=      5-min Rain = 0
KPD2 221526Z 32009G14KT 01/M04 A2988 RMK A01 T00071035  RH  073%=      5-min Rain = 0
KPD2 221527Z 32015KT 01/M04 A2988 RMK A01 T00071036  RH  073%=      5-min Rain = 0
KPD2 221528Z 33013KT 01/M04 A2988 RMK A01 T00071036  RH  073%=      5-min Rain = 0
KPD2 221529Z 33014G22KT 01/M04 A2988 RMK A01 T00071036  RH  073%=      5-min Rain = 0
KPD2 221530Z 31009G15KT 01/M04 A2988 RMK A01 T00071036  RH  073%=      5-min Rain = 0
KPD2 221531Z 32010G19KT 01/M04 A2988 RMK A01 T00061036  RH  073%=      5-min Rain = 0
KPD2 221532Z 32018KT 01/M04 A2988 RMK A01 T00061037  RH  073%=      5-min Rain = 0
KPD2 221533Z 33013KT 01/M04 A2988 RMK A01 T00061037  RH  073%=      5-min Rain = 0
KPD2 221534Z 31009G14KT 01/M04 A2988 RMK A01 T00061037  RH  073%=      5-min Rain = 0
KPD2 221535Z 32010KT 01/M04 A2988 RMK A01 T00061036  RH  073%=      5-min Rain = 0
KPD2 221536Z 32012G17KT 01/M04 A2988 RMK A01 T00061036  RH  073%=      5-min Rain = 0
KPD2 221537Z 31012G17KT 01/M04 A2988 RMK A01 T00061037  RH  073%=      5-min Rain = 0
KPD2 221538Z 33011G16KT 01/M04 A2988 RMK A01 T00061037  RH  073%=      5-min Rain = 0
KPD2 221539Z 32012G17KT 01/M04 A2988 RMK A01 T00061037  RH  073%=      5-min Rain = 0
KPD2 221540Z 33011KT 01/M04 A2989 RMK A01 T00061037  RH  073%=      5-min Rain = 0
KPD2 221541Z 32008KT 01/M04 A2989 RMK A01 T00061037  RH  073%=      5-min Rain = 0
KPD2 221542Z 31011KT 01/M04 A2989 RMK A01 T00061036  RH  073%=      5-min Rain = 0
KPD2 221543Z 32011KT 01/M04 A2989 RMK A01 T00071036  RH  073%=      5-min Rain = 0
KPD2 221544Z 32011G17KT 01/M04 A2989 RMK A01 T00071037  RH  073%=      5-min Rain = 0
KPD2 221545Z 33012KT 01/M04 A2988 RMK A01 T00061037  RH  073%=      5-min Rain = 0
KPD2 221546Z 33015G20KT 01/M04 A2989 RMK A01 T00051038  RH  073%=      5-min Rain = 0
KPD2 221547Z 32013G20KT 01/M04 A2989 RMK A01 T00051037  RH  073%=      5-min Rain = 0
KPD2 221548Z 31010G17KT 00/M04 A2989 RMK A01 T00041038  RH  073%=      5-min Rain = 0
KPD2 221549Z 32011G16KT 00/M04 A2989 RMK A01 T00041038  RH  073%=      5-min Rain = 0
KPD2 221550Z 32011KT 00/M04 A2989 RMK A01 T00041038  RH  073%=      5-min Rain = 0
KPD2 221551Z 33011G16KT 01/M04 A299 RMK A01 T00051038  RH  073%=      5-min Rain = 0
KPD2 221552Z 34011KT 01/M04 A299 RMK A01 T00051038  RH  073%=      5-min Rain = 0
KPD2 221553Z 32011KT 00/M04 A299 RMK A01 T00041038  RH  073%=      5-min Rain = 0
KPD2 221554Z 33016G25KT 00/M04 A299 RMK A01 T00041038  RH  073%=      5-min Rain = 0
KPD2 221555Z 33020G27KT 00/M04 A299 RMK A01 T00041039  RH  073%=      5-min Rain = 0
KPD2 221556Z 33017G24KT 00/M04 A299 RMK A01 T00041040  RH  073%=      5-min Rain = 0
KPD2 221557Z 32014KT 00/M04 A299 RMK A01 T00041040  RH  073%=      5-min Rain = 0
KPD2 221558Z 33013G23KT 00/M04 A299 RMK A01 T00041040  RH  073%=      5-min Rain = 0
KPD2 221559Z 33014G20KT 00/M04 A299 RMK A01 T00041040  RH  073%=      5-min Rain = 0
KPD2 221600Z 32014G22KT 00/M04 A2991 RMK A01 T00041040  RH  072%=      5-min Rain = 0
KPD2 221601Z 31011KT 00/M04 A2991 RMK A01 T00041040  RH  072%=      5-min Rain = 0
KPD2 221602Z 32013G19KT 00/M04 A2991 RMK A01 T00041040  RH  072%=      5-min Rain = 0
KPD2 221603Z 32013G18KT 00/M04 A2991 RMK A01 T00041040  RH  072%=      5-min Rain = 0
KPD2 221604Z 33012G17KT 00/M04 A2991 RMK A01 T00041040  RH  072%=      5-min Rain = 0
KPD2 221605Z 32012G18KT 00/M04 A2991 RMK A01 T00041040  RH  072%=      5-min Rain = 0
KPD2 221606Z 32012KT 00/M04 A299 RMK A01 T00041040  RH  072%=      5-min Rain = 0
KPD2 221607Z 32010KT 00/M04 A299 RMK A01 T00041040  RH  072%=      5-min Rain = 0
KPD2 221608Z 32013KT 00/M04 A2991 RMK A01 T00041040  RH  072%=      5-min Rain = 0
KPD2 221609Z 32011G16KT 00/M04 A2991 RMK A01 T00041040  RH  072%=      5-min Rain = 0
KPD2 221610Z 34014G24KT 00/M04 A2991 RMK A01 T00031040  RH  073%=      5-min Rain = 0
KPD2 221611Z 32015G21KT 00/M04 A2991 RMK A01 T00031040  RH  073%=      5-min Rain = 0
KPD2 221612Z 32012G17KT 00/M04 A2992 RMK A01 T00031040  RH  073%=      5-min Rain = 0
KPD2 221613Z 33016G23KT 00/M04 A2991 RMK A01 T00031040  RH  073%=      5-min Rain = 0
KPD2 221614Z 33014G20KT 00/M04 A2992 RMK A01 T00031040  RH  073%=      5-min Rain = 0
KPD2 221615Z 33012G23KT 00/M04 A2992 RMK A01 T00031040  RH  073%=      5-min Rain = 0
KPD2 221616Z 34008G13KT 00/M04 A2992 RMK A01 T00031040  RH  073%=      5-min Rain = 0
KPD2 221617Z 35010G15KT 00/M04 A2992 RMK A01 T00031040  RH  073%=      5-min Rain = 0
KPD2 221618Z 32009KT 00/M04 A2992 RMK A01 T00031040  RH  073%=      5-min Rain = 0
KPD2 221619Z 30011G17KT 00/M04 A2992 RMK A01 T00031040  RH  073%=      5-min Rain = 0
KPD2 221620Z 32010KT 00/M04 A2992 RMK A01 T00031040  RH  073%=      5-min Rain = 0
KPD2 221621Z 31013G20KT 00/M04 A2992 RMK A01 T00031040  RH  072%=      5-min Rain = 0
KPD2 221622Z 33014KT 00/M04 A2992 RMK A01 T00031040  RH  072%=      5-min Rain = 0
KPD2 221623Z 35012KT 00/M04 A2991 RMK A01 T00031040  RH  073%=      5-min Rain = 0
KPD2 221624Z 34009KT 00/M04 A2992 RMK A01 T00031040  RH  073%=      5-min Rain = 0
KPD2 221625Z 32010KT 00/M04 A2991 RMK A01 T00031040  RH  073%=      5-min Rain = 0
KPD2 221626Z 34010G15KT 00/M04 A2992 RMK A01 T00031041  RH  073%=      5-min Rain = 0
KPD2 221627Z 32009G16KT 00/M04 A2991 RMK A01 T00031041  RH  073%=      5-min Rain = 0
KPD2 221628Z 32011G17KT 00/M04 A2992 RMK A01 T00031041  RH  073%=      5-min Rain = 0
KPD2 221629Z 32013KT 00/M04 A2992 RMK A01 T00031040  RH  073%=      5-min Rain = 0
KPD2 221630Z 33013KT 00/M04 A2992 RMK A01 T00031041  RH  073%=      5-min Rain = 0
KPD2 221631Z 32009G14KT 00/M04 A2992 RMK A01 T00021041  RH  073%=      5-min Rain = 0
KPD2 221632Z 31015G22KT 00/M04 A2992 RMK A01 T00021040  RH  073%=      5-min Rain = 0
KPD2 221633Z 30013G19KT 00/M04 A2993 RMK A01 T00021041  RH  073%=      5-min Rain = 0
KPD2 221634Z 31013KT 00/M04 A2993 RMK A01 T00021041  RH  073%=      5-min Rain = 0
KPD2 221635Z 31010KT 00/M04 A2993 RMK A01 T00031041  RH  073%=      5-min Rain = 0
KPD2 221636Z 31010G16KT 00/M04 A2993 RMK A01 T00031040  RH  073%=      5-min Rain = 0
KPD2 221637Z 32014G19KT 00/M04 A2993 RMK A01 T00041040  RH  072%=      5-min Rain = 0
KPD2 221638Z 33014G19KT 00/M04 A2993 RMK A01 T00041041  RH  072%=      5-min Rain = 0
KPD2 221639Z 32016G23KT 00/M04 A2993 RMK A01 T00041041  RH  072%=      5-min Rain = 0
KPD2 221640Z 32015G23KT 01/M04 A2993 RMK A01 T00051041  RH  071%=      5-min Rain = 0
KPD2 221641Z 32016G21KT 01/M04 A2993 RMK A01 T00051041  RH  071%=      5-min Rain = 0
KPD2 221642Z 32013G20KT 01/M04 A2993 RMK A01 T00051042  RH  071%=      5-min Rain = 0
KPD2 221643Z 34016G25KT 01/M04 A2993 RMK A01 T00061041  RH  071%=      5-min Rain = 0
KPD2 221644Z 31014G20KT 01/M04 A2993 RMK A01 T00061042  RH  071%=      5-min Rain = 0
KPD2 221645Z 33014G20KT 01/M04 A2994 RMK A01 T00061042  RH  071%=      5-min Rain = 0
KPD2 221646Z 34010KT 01/M04 A2994 RMK A01 T00061041  RH  071%=      5-min Rain = 0
KPD2 221647Z 32009G14KT 01/M04 A2994 RMK A01 T00071040  RH  070%=      5-min Rain = 0
KPD2 221648Z 33008G14KT 01/M04 A2994 RMK A01 T00081040  RH  070%=      5-min Rain = 0
KPD2 221649Z 34013G24KT 01/M04 A2993 RMK A01 T00091040  RH  070%=      5-min Rain = 0
KPD2 221650Z 34019G24KT 01/M04 A2993 RMK A01 T00091041  RH  069%=      5-min Rain = 0
KPD2 221651Z 34015G21KT 01/M04 A2993 RMK A01 T00081042  RH  069%=      5-min Rain = 0
KPD2 221652Z 32011G16KT 01/M04 A2993 RMK A01 T00081042  RH  069%=      5-min Rain = 0
KPD2 221653Z 31014G19KT 01/M04 A2993 RMK A01 T00081041  RH  069%=      5-min Rain = 0
KPD2 221654Z 32011G18KT 01/M04 A2993 RMK A01 T00081042  RH  069%=      5-min Rain = 0
KPD2 221655Z 33014G20KT 01/M04 A2993 RMK A01 T00081042  RH  069%=      5-min Rain = 0
KPD2 221656Z 33012G18KT 01/M04 A2994 RMK A01 T00091041  RH  069%=      5-min Rain = 0
KPD2 221657Z 33011G17KT 01/M04 A2994 RMK A01 T00091041  RH  069%=      5-min Rain = 0
KPD2 221658Z 33010G17KT 01/M04 A2994 RMK A01 T00091041  RH  069%=      5-min Rain = 0
KPD2 221659Z 35009G16KT 01/M04 A2994 RMK A01 T00091041  RH  070%=      5-min Rain = 0
KPD2 221700Z 33013G23KT 01/M04 A2994 RMK A01 T00091040  RH  070%=      5-min Rain = 0
KPD2 221701Z 34014G21KT 01/M04 A2994 RMK A01 T00091040  RH  070%=      5-min Rain = 0
KPD2 221702Z 33011G16KT 01/M04 A2994 RMK A01 T00081041  RH  070%=      5-min Rain = 0
KPD2 221703Z 31009KT 01/M04 A2994 RMK A01 T00081040  RH  070%=      5-min Rain = 0
KPD2 221704Z 32011KT 01/M04 A2994 RMK A01 T00091040  RH  070%=      5-min Rain = 0
KPD2 221705Z 32009G16KT 01/M04 A2994 RMK A01 T00091040  RH  070%=      5-min Rain = 0
KPD2 221706Z 33013G21KT 01/M04 A2994 RMK A01 T00081040  RH  070%=      5-min Rain = 0
KPD2 221707Z 32015KT 01/M04 A2994 RMK A01 T00081040  RH  070%=      5-min Rain = 0
KPD2 221708Z 32011KT 01/M04 A2994 RMK A01 T00081041  RH  070%=      5-min Rain = 0
KPD2 221709Z 34011G16KT 01/M04 A2994 RMK A01 T00071041  RH  070%=      5-min Rain = 0
KPD2 221710Z 34010G16KT 01/M04 A2994 RMK A01 T00071040  RH  070%=      5-min Rain = 0
KPD2 221711Z 34008KT 01/M04 A2994 RMK A01 T00081040  RH  071%=      5-min Rain = 0
KPD2 221712Z 33014G20KT 01/M04 A2994 RMK A01 T00081039  RH  071%=      5-min Rain = 0
KPD2 221713Z 34013KT 01/M04 A2994 RMK A01 T00091039  RH  071%=      5-min Rain = 0
KPD2 221714Z 31014G19KT 01/M04 A2994 RMK A01 T00091039  RH  071%=      5-min Rain = 0
KPD2 221715Z 32015KT 01/M04 A2994 RMK A01 T00091039  RH  070%=      5-min Rain = 0
KPD2 221716Z 32011G18KT 01/M04 A2994 RMK A01 T00091039  RH  070%=      5-min Rain = 0
KPD2 221717Z 33014G24KT 01/M04 A2994 RMK A01 T00091039  RH  070%=      5-min Rain = 0
KPD2 221718Z 33016G30KT 01/M04 A2994 RMK A01 T00101039  RH  070%=      5-min Rain = 0
KPD2 221719Z 31015KT 01/M04 A2994 RMK A01 T00091040  RH  070%=      5-min Rain = 0
KPD2 221720Z 32013G21KT 01/M04 A2994 RMK A01 T00091040  RH  070%=      5-min Rain = 0
KPD2 221721Z 34017KT 01/M04 A2994 RMK A01 T00091040  RH  070%=      5-min Rain = 0
KPD2 221722Z 33015G21KT 01/M04 A2994 RMK A01 T00081040  RH  070%=      5-min Rain = 0
KPD2 221723Z 33012KT 01/M04 A2994 RMK A01 T00091040  RH  070%=      5-min Rain = 0
KPD2 221724Z 33014G19KT 01/M04 A2994 RMK A01 T00081040  RH  070%=      5-min Rain = 0
KPD2 221725Z 34011G16KT 01/M04 A2994 RMK A01 T00091040  RH  070%=      5-min Rain = 0
KPD2 221726Z 32010KT 01/M04 A2994 RMK A01 T00091040  RH  070%=      5-min Rain = 0
KPD2 221727Z 31012KT 01/M04 A2994 RMK A01 T00101039  RH  070%=      5-min Rain = 0
KPD2 221728Z 34012G20KT 01/M04 A2994 RMK A01 T00091040  RH  069%=      5-min Rain = 0
KPD2 221729Z 33018KT 01/M04 A2995 RMK A01 T00091041  RH  069%=      5-min Rain = 0
KPD2 221730Z 32013KT 01/M04 A2995 RMK A01 T00081041  RH  070%=      5-min Rain = 0
KPD2 221731Z 33012G17KT 01/M04 A2995 RMK A01 T00091041  RH  070%=      5-min Rain = 0
KPD2 221732Z 33013KT 01/M04 A2995 RMK A01 T00081041  RH  070%=      5-min Rain = 0
KPD2 221733Z 33014G21KT 01/M04 A2995 RMK A01 T00091041  RH  069%=      5-min Rain = 0
KPD2 221734Z 33012G19KT 01/M04 A2995 RMK A01 T00091042  RH  069%=      5-min Rain = 0
KPD2 221735Z 33016G24KT 01/M04 A2995 RMK A01 T00091042  RH  069%=      5-min Rain = 0
KPD2 221736Z 33019G24KT 01/M04 A2995 RMK A01 T00091044  RH  068%=      5-min Rain = 0
KPD2 221737Z 34015G20KT 01/M05 A2995 RMK A01 T00071045  RH  068%=      5-min Rain = 0
KPD2 221738Z 32014G20KT 01/M05 A2996 RMK A01 T00071045  RH  068%=      5-min Rain = 0
KPD2 221739Z 33011G16KT 01/M05 A2996 RMK A01 T00071045  RH  068%=      5-min Rain = 0
KPD2 221740Z 34010G17KT 01/M04 A2996 RMK A01 T00081044  RH  068%=      5-min Rain = 0
KPD2 221741Z 33012KT 01/M04 A2996 RMK A01 T00091044  RH  068%=      5-min Rain = 0
KPD2 221742Z 34016G21KT 01/M04 A2996 RMK A01 T00091044  RH  067%=      5-min Rain = 0
KPD2 221743Z 34013G19KT 01/M05 A2996 RMK A01 T00091045  RH  067%=      5-min Rain = 0
KPD2 221744Z 33016G21KT 01/M05 A2996 RMK A01 T00091046  RH  067%=      5-min Rain = 0
KPD2 221745Z 33015G20KT 01/M05 A2996 RMK A01 T00081047  RH  067%=      5-min Rain = 0
KPD2 221746Z 33011KT 01/M05 A2996 RMK A01 T00071047  RH  067%=      5-min Rain = 0
KPD2 221747Z 32011G16KT 01/M05 A2996 RMK A01 T00071047  RH  067%=      5-min Rain = 0
KPD2 221748Z 32014G20KT 01/M05 A2996 RMK A01 T00071047  RH  067%=      5-min Rain = 0
KPD2 221749Z 33014KT 01/M05 A2996 RMK A01 T00071047  RH  067%=      5-min Rain = 0
KPD2 221750Z 34018G25KT 01/M05 A2996 RMK A01 T00071047  RH  067%=      5-min Rain = 0
KPD2 221751Z 33016G22KT 01/M05 A2997 RMK A01 T00061049  RH  067%=      5-min Rain = 0
KPD2 221752Z 32013G18KT 01/M05 A2997 RMK A01 T00051049  RH  067%=      5-min Rain = 0
KPD2 221753Z 33012KT 01/M05 A2997 RMK A01 T00051050  RH  067%=      5-min Rain = 0
KPD2 221754Z 34015KT 00/M05 A2997 RMK A01 T00041051  RH  067%=      5-min Rain = 0
KPD2 221755Z 32015G21KT 00/M05 A2997 RMK A01 T00041052  RH  066%=      5-min Rain = 0
KPD2 221756Z 31012G17KT 00/M05 A2997 RMK A01 T00031052  RH  066%=      5-min Rain = 0
KPD2 221757Z 33014KT 00/M05 A2998 RMK A01 T00031052  RH  066%=      5-min Rain = 0
KPD2 221758Z 33014KT 00/M05 A2997 RMK A01 T00031053  RH  066%=      5-min Rain = 0
KPD2 221759Z 34013G19KT 00/M05 A2997 RMK A01 T00031054  RH  066%=      5-min Rain = 0
KPD2 221800Z 34012G17KT 00/M05 A2997 RMK A01 T00031054  RH  066%=      5-min Rain = 0
KPD2 221801Z 33012KT 00/M05 A2997 RMK A01 T00041054  RH  065%=      5-min Rain = 0
KPD2 221802Z 34012KT 00/M06 A2997 RMK A01 T00041055  RH  065%=      5-min Rain = 0
KPD2 221803Z 32012G18KT 00/M06 A2998 RMK A01 T00041055  RH  064%=      5-min Rain = 0
KPD2 221804Z 31013G19KT 00/M06 A2998 RMK A01 T00041056  RH  064%=      5-min Rain = 0
KPD2 221805Z 32014KT 00/M06 A2998 RMK A01 T00041057  RH  063%=      5-min Rain = 0
KPD2 221806Z 32011G16KT 00/M06 A2998 RMK A01 T00041059  RH  063%=      5-min Rain = 0
KPD2 221807Z 33013KT 00/M06 A2998 RMK A01 T00041059  RH  063%=      5-min Rain = 0
KPD2 221808Z 33011KT 00/M06 A2998 RMK A01 T00031059  RH  063%=      5-min Rain = 0
KPD2 221809Z 32012G17KT 00/M06 A2998 RMK A01 T00041059  RH  062%=      5-min Rain = 0
KPD2 221810Z 33014KT 01/M06 A2998 RMK A01 T00051060  RH  062%=      5-min Rain = 0
KPD2 221811Z 33015G21KT 01/M06 A2998 RMK A01 T00051061  RH  062%=      5-min Rain = 0
KPD2 221812Z 33017KT 01/M06 A2998 RMK A01 T00051061  RH  061%=      5-min Rain = 0
KPD2 221813Z 34014KT 01/M06 A2998 RMK A01 T00051061  RH  061%=      5-min Rain = 0
KPD2 221814Z 34015G22KT 01/M06 A2998 RMK A01 T00051061  RH  061%=      5-min Rain = 0
KPD2 221815Z 34014G21KT 01/M06 A2998 RMK A01 T00051062  RH  061%=      5-min Rain = 0
KPD2 221816Z 35014G22KT 01/M06 A2998 RMK A01 T00051062  RH  061%=      5-min Rain = 0
KPD2 221817Z 34014G21KT 01/M06 A2998 RMK A01 T00061062  RH  060%=      5-min Rain = 0
KPD2 221818Z 33016KT 01/M06 A2998 RMK A01 T00071062  RH  060%=      5-min Rain = 0
KPD2 221819Z 34016G22KT 01/M06 A2998 RMK A01 T00071063  RH  060%=      5-min Rain = 0
KPD2 221820Z 34013G18KT 01/M06 A2998 RMK A01 T00071063  RH  060%=      5-min Rain = 0
KPD2 221821Z 34009KT 01/M06 A2998 RMK A01 T00071063  RH  060%=      5-min Rain = 0
KPD2 221822Z 33008KT 01/M06 A2998 RMK A01 T00081062  RH  060%=      5-min Rain = 0
KPD2 221823Z 31021G29KT 01/M06 A2998 RMK A01 T00101061  RH  059%=      5-min Rain = 0
KPD2 221824Z 32020G25KT 01/M07 A2998 RMK A01 T00081066  RH  058%=      5-min Rain = 0
KPD2 221825Z 33019G24KT 01/M07 A2998 RMK A01 T00061068  RH  058%=      5-min Rain = 0
KPD2 221826Z 33014G20KT 01/M07 A2998 RMK A01 T00051068  RH  058%=      5-min Rain = 0
KPD2 221827Z 33019G28KT 01/M07 A2998 RMK A01 T00061067  RH  058%=      5-min Rain = 0
KPD2 221828Z 34020G28KT 01/M07 A2998 RMK A01 T00061068  RH  058%=      5-min Rain = 0
KPD2 221829Z 32015G23KT 01/M07 A2998 RMK A01 T00061068  RH  058%=      5-min Rain = 0
KPD2 221830Z 33016KT 01/M07 A2998 RMK A01 T00071068  RH  057%=      5-min Rain = 0
KPD2 221831Z 33020G27KT 01/M07 A2998 RMK A01 T00071069  RH  057%=      5-min Rain = 0
KPD2 221832Z 32019G24KT 01/M07 A2998 RMK A01 T00061069  RH  057%=      5-min Rain = 0
KPD2 221833Z 33020G31KT 01/M07 A2998 RMK A01 T00061070  RH  057%=      5-min Rain = 0
KPD2 221834Z 32019G28KT 01/M07 A2997 RMK A01 T00051071  RH  057%=      5-min Rain = 0
KPD2 221835Z 32015G21KT 00/M07 A2997 RMK A01 T00041072  RH  057%=      5-min Rain = 0
KPD2 221836Z 33019G24KT 01/M07 A2997 RMK A01 T00051071  RH  057%=      5-min Rain = 0
KPD2 221837Z 32019KT 01/M07 A2997 RMK A01 T00051072  RH  056%=      5-min Rain = 0
KPD2 221838Z 32016KT 01/M07 A2997 RMK A01 T00051072  RH  056%=      5-min Rain = 0
KPD2 221839Z 32014KT 01/M07 A2998 RMK A01 T00051072  RH  056%=      5-min Rain = 0
KPD2 221840Z 34015G21KT 01/M07 A2998 RMK A01 T00061071  RH  056%=      5-min Rain = 0
KPD2 221841Z 33012KT 01/M07 A2998 RMK A01 T00071071  RH  056%=      5-min Rain = 0
KPD2 221842Z 33013G19KT 01/M07 A2998 RMK A01 T00071071  RH  056%=      5-min Rain = 0
KPD2 221843Z 31015G22KT 01/M07 A2997 RMK A01 T00091071  RH  055%=      5-min Rain = 0
KPD2 221844Z 32014G22KT 01/M07 A2997 RMK A01 T00091072  RH  055%=      5-min Rain = 0
KPD2 221845Z 33016G23KT 01/M07 A2997 RMK A01 T00091073  RH  054%=      5-min Rain = 0
KPD2 221846Z 34017KT 01/M07 A2997 RMK A01 T00081074  RH  054%=      5-min Rain = 0
KPD2 221847Z 33014KT 01/M07 A2997 RMK A01 T00081073  RH  055%=      5-min Rain = 0
KPD2 221848Z 33013G18KT 01/M07 A2998 RMK A01 T00081073  RH  054%=      5-min Rain = 0
KPD2 221849Z 32011KT 01/M07 A2998 RMK A01 T00081073  RH  055%=      5-min Rain = 0
KPD2 221850Z 33011KT 01/M07 A2998 RMK A01 T00101071  RH  055%=      5-min Rain = 0
KPD2 221851Z 33011G16KT 01/M07 A2998 RMK A01 T00111071  RH  054%=      5-min Rain = 0
KPD2 221852Z 32015G21KT 01/M07 A2998 RMK A01 T00121072  RH  054%=      5-min Rain = 0
KPD2 221853Z 33020G29KT 01/M08 A2998 RMK A01 T00111075  RH  053%=      5-min Rain = 0
KPD2 221854Z 33021G26KT 01/M08 A2998 RMK A01 T00081076  RH  053%=      5-min Rain = 0
KPD2 221855Z 33015G20KT 01/M08 A2998 RMK A01 T00081076  RH  054%=      5-min Rain = 0
KPD2 221856Z 33017G24KT 01/M07 A2998 RMK A01 T00091074  RH  054%=      5-min Rain = 0
KPD2 221857Z 33018G23KT 01/M07 A2998 RMK A01 T00091074  RH  054%=      5-min Rain = 0
KPD2 221858Z 34015KT 01/M08 A2997 RMK A01 T00091075  RH  053%=      5-min Rain = 0
KPD2 221859Z 33012KT 01/M07 A2998 RMK A01 T00101074  RH  053%=      5-min Rain = 0
KPD2 221900Z 31011G16KT 01/M07 A2998 RMK A01 T00121072  RH  053%=      5-min Rain = 0
KPD2 221901Z 33016G22KT 01/M07 A2998 RMK A01 T00141072  RH  053%=      5-min Rain = 0
KPD2 221902Z 34017KT 01/M08 A2998 RMK A01 T00131076  RH  051%=      5-min Rain = 0
KPD2 221903Z 32015G20KT 01/M08 A2998 RMK A01 T00111078  RH  051%=      5-min Rain = 0
KPD2 221904Z 32014G20KT 01/M08 A2998 RMK A01 T00111077  RH  052%=      5-min Rain = 0
KPD2 221905Z 32017G22KT 01/M08 A2998 RMK A01 T00111077  RH  052%=      5-min Rain = 0
KPD2 221906Z 33014G19KT 01/M08 A2998 RMK A01 T00111077  RH  052%=      5-min Rain = 0
KPD2 221907Z 32014KT 01/M08 A2998 RMK A01 T00121077  RH  051%=      5-min Rain = 0
KPD2 221908Z 32016KT 01/M08 A2998 RMK A01 T00121077  RH  051%=      5-min Rain = 0
KPD2 221909Z 35020G29KT 01/M08 A2998 RMK A01 T00121078  RH  051%=      5-min Rain = 0
KPD2 221910Z 33019G28KT 01/M08 A2998 RMK A01 T00111079  RH  051%=      5-min Rain = 0
KPD2 221911Z 34019G28KT 01/M08 A2998 RMK A01 T00111080  RH  051%=      5-min Rain = 0
KPD2 221912Z 32017G23KT 01/M08 A2998 RMK A01 T00101081  RH  051%=      5-min Rain = 0
KPD2 221913Z 33017KT 01/M08 A2998 RMK A01 T00101081  RH  051%=      5-min Rain = 0
KPD2 221914Z 34017G22KT 01/M08 A2998 RMK A01 T00101081  RH  051%=      5-min Rain = 0
KPD2 221915Z 32016G23KT 01/M08 A2998 RMK A01 T00111080  RH  051%=      5-min Rain = 0
KPD2 221916Z 34021G26KT 01/M08 A2998 RMK A01 T00121081  RH  050%=      5-min Rain = 0
KPD2 221917Z 34019G24KT 01/M08 A2998 RMK A01 T00111082  RH  050%=      5-min Rain = 0
KPD2 221918Z 33016G25KT 01/M08 A2998 RMK A01 T00111081  RH  050%=      5-min Rain = 0
KPD2 221919Z 32016KT 01/M08 A2998 RMK A01 T00121081  RH  050%=      5-min Rain = 0
KPD2 221920Z 32012KT 01/M08 A2999 RMK A01 T00131080  RH  050%=      5-min Rain = 0
KPD2 221921Z 32015G22KT 02/M08 A2998 RMK A01 T00151080  RH  050%=      5-min Rain = 0
KPD2 221922Z 31015KT 02/M08 A2998 RMK A01 T00151081  RH  049%=      5-min Rain = 0
KPD2 221923Z 31014KT 02/M08 A2998 RMK A01 T00151081  RH  049%=      5-min Rain = 0
KPD2 221924Z 34015KT 02/M08 A2998 RMK A01 T00151081  RH  049%=      5-min Rain = 0
KPD2 221925Z 32014G20KT 02/M08 A2998 RMK A01 T00171079  RH  049%=      5-min Rain = 0
KPD2 221926Z 33013G18KT 02/M08 A2998 RMK A01 T00181080  RH  048%=      5-min Rain = 0
KPD2 221927Z 32016KT 02/M08 A2998 RMK A01 T00171082  RH  048%=      5-min Rain = 0
KPD2 221928Z 33016G21KT 02/M08 A2998 RMK A01 T00161083  RH  048%=      5-min Rain = 0
KPD2 221929Z 33012G23KT 02/M08 A2998 RMK A01 T00161083  RH  048%=      5-min Rain = 0
KPD2 221930Z 32020G27KT 02/M08 A2998 RMK A01 T00161084  RH  048%=      5-min Rain = 0
KPD2 221931Z 33015G21KT 01/M09 A2998 RMK A01 T00141085  RH  047%=      5-min Rain = 0
KPD2 221932Z 33016G21KT 02/M09 A2998 RMK A01 T00151085  RH  048%=      5-min Rain = 0
KPD2 221933Z 33019KT 01/M09 A2998 RMK A01 T00131087  RH  047%=      5-min Rain = 0
KPD2 221934Z 31012G17KT 01/M09 A2998 RMK A01 T00121087  RH  048%=      5-min Rain = 0
KPD2 221935Z 34014KT 01/M09 A2998 RMK A01 T00131085  RH  048%=      5-min Rain = 0
KPD2 221936Z 33015G23KT 02/M08 A2998 RMK A01 T00151084  RH  048%=      5-min Rain = 0
KPD2 221937Z 33017G27KT 02/M09 A2998 RMK A01 T00151086  RH  047%=      5-min Rain = 0
KPD2 221938Z 33016G25KT 02/M09 A2998 RMK A01 T00151086  RH  047%=      5-min Rain = 0
KPD2 221939Z 34019G25KT 01/M09 A2998 RMK A01 T00141087  RH  047%=      5-min Rain = 0
KPD2 221940Z 33017G22KT 01/M09 A2998 RMK A01 T00131088  RH  047%=      5-min Rain = 0
KPD2 221941Z 33019G27KT 01/M09 A2999 RMK A01 T00141086  RH  047%=      5-min Rain = 0
KPD2 221942Z 33022KT 01/M09 A2998 RMK A01 T00141087  RH  047%=      5-min Rain = 0
KPD2 221943Z 34018G24KT 01/M09 A2999 RMK A01 T00111088  RH  047%=      5-min Rain = 0
KPD2 221944Z 33016G24KT 01/M09 A2999 RMK A01 T00121086  RH  048%=      5-min Rain = 0
KPD2 221945Z 33023G28KT 01/M09 A2999 RMK A01 T00131085  RH  048%=      5-min Rain = 0
KPD2 221946Z 33019G26KT 01/M09 A2998 RMK A01 T00121086  RH  048%=      5-min Rain = 0
KPD2 221947Z 32022G29KT 01/M09 A2998 RMK A01 T00111086  RH  048%=      5-min Rain = 0
KPD2 221948Z 34017G25KT 01/M09 A2998 RMK A01 T00121085  RH  049%=      5-min Rain = 0
KPD2 221949Z 32014G21KT 02/M08 A2999 RMK A01 T00161081  RH  048%=      5-min Rain = 0
KPD2 221950Z 33016KT 02/M08 A2999 RMK A01 T00181082  RH  047%=      5-min Rain = 0
KPD2 221951Z 33013KT 02/M08 A2999 RMK A01 T00181083  RH  047%=      5-min Rain = 0
KPD2 221952Z 33020G27KT 02/M08 A2999 RMK A01 T00201081  RH  047%=      5-min Rain = 0
KPD2 221953Z 35019G28KT 02/M08 A2999 RMK A01 T00211083  RH  046%=      5-min Rain = 0
KPD2 221954Z 34015G20KT 02/M08 A2999 RMK A01 T00211083  RH  046%=      5-min Rain = 0
KPD2 221955Z 35013G18KT 02/M08 A2999 RMK A01 T00221082  RH  046%=      5-min Rain = 0
KPD2 221956Z 36015G22KT 03/M08 A2999 RMK A01 T00261080  RH  046%=      5-min Rain = 0
KPD2 221957Z 36021KT 03/M08 A2999 RMK A01 T00281082  RH  044%=      5-min Rain = 0
KPD2 221958Z 33014G19KT 03/M08 A2999 RMK A01 T00281084  RH  044%=      5-min Rain = 0
KPD2 221959Z 34014G21KT 03/M09 A2999 RMK A01 T00261085  RH  044%=      5-min Rain = 0
KPD2 222000Z 34017G23KT 03/M09 A2999 RMK A01 T00261086  RH  043%=      5-min Rain = 0
KPD2 222001Z 35020G29KT 03/M09 A2999 RMK A01 T00261087  RH  043%=      5-min Rain = 0
KPD2 222002Z 34019G27KT 02/M09 A2999 RMK A01 T00231092  RH  042%=      5-min Rain = 0
KPD2 222003Z 33016G25KT 02/M09 A2999 RMK A01 T00201094  RH  043%=      5-min Rain = 0
KPD2 222004Z 34013G20KT 02/M09 A2999 RMK A01 T00181093  RH  044%=      5-min Rain = 0
KPD2 222005Z 34019G26KT 02/M09 A2998 RMK A01 T00181092  RH  044%=      5-min Rain = 0
KPD2 222006Z 34023G32KT 02/M10 A2998 RMK A01 T00171095  RH  043%=      5-min Rain = 0
KPD2 222007Z 34019G25KT 01/M10 A2998 RMK A01 T00141097  RH  043%=      5-min Rain = 0
KPD2 222008Z 33020KT 01/M10 A2998 RMK A01 T00131097  RH  044%=      5-min Rain = 0
KPD2 222009Z 34018G26KT 01/M10 A2998 RMK A01 T00121096  RH  044%=      5-min Rain = 0
KPD2 222010Z 34018G25KT 01/M10 A2998 RMK A01 T00131095  RH  044%=      5-min Rain = 0
KPD2 222011Z 34019G30KT 02/M09 A2998 RMK A01 T00161092  RH  044%=      5-min Rain = 0
KPD2 222012Z 34019G25KT 02/M09 A2998 RMK A01 T00191091  RH  044%=      5-min Rain = 0
KPD2 222013Z 33017G24KT 02/M09 A2998 RMK A01 T00241090  RH  043%=      5-min Rain = 0
KPD2 222014Z 33015G22KT 03/M09 A2999 RMK A01 T00251090  RH  042%=      5-min Rain = 0
KPD2 222015Z 33012G18KT 03/M09 A2999 RMK A01 T00271091  RH  042%=      5-min Rain = 0
KPD2 222016Z 33018G24KT 03/M09 A2999 RMK A01 T00251093  RH  041%=      5-min Rain = 0
KPD2 222017Z 34019G29KT 02/M10 A2999 RMK A01 T00221096  RH  041%=      5-min Rain = 0
KPD2 222018Z 33015G22KT 02/M10 A2999 RMK A01 T00201095  RH  042%=      5-min Rain = 0
KPD2 222019Z 32014G19KT 02/M09 A2999 RMK A01 T00201094  RH  043%=      5-min Rain = 0
KPD2 222020Z 33017KT 02/M09 A2999 RMK A01 T00201094  RH  043%=      5-min Rain = 0
KPD2 222021Z 33020G31KT 02/M09 A2998 RMK A01 T00201094  RH  043%=      5-min Rain = 0
KPD2 222022Z 33016G26KT 02/M10 A2999 RMK A01 T00191095  RH  043%=      5-min Rain = 0
KPD2 222023Z 34012G22KT 02/M09 A2999 RMK A01 T00191093  RH  043%=      5-min Rain = 0
KPD2 222024Z 33020G28KT 02/M09 A2999 RMK A01 T00221091  RH  043%=      5-min Rain = 0
KPD2 222025Z 32015G20KT 02/M09 A2999 RMK A01 T00231093  RH  042%=      5-min Rain = 0
KPD2 222026Z 32016G22KT 03/M09 A2999 RMK A01 T00251091  RH  042%=      5-min Rain = 0
KPD2 222027Z 34014G20KT 03/M09 A2999 RMK A01 T00271091  RH  042%=      5-min Rain = 0
KPD2 222028Z 34016G27KT 03/M09 A2999 RMK A01 T00301090  RH  041%=      5-min Rain = 0
KPD2 222029Z 32015G20KT 03/M09 A2998 RMK A01 T00311090  RH  041%=      5-min Rain = 0
KPD2 222030Z 32016G23KT 03/M09 A2998 RMK A01 T00311091  RH  040%=      5-min Rain = 0
KPD2 222031Z 33016G24KT 03/M09 A2998 RMK A01 T00301093  RH  040%=      5-min Rain = 0
KPD2 222032Z 32012G18KT 03/M09 A2998 RMK A01 T00291094  RH  040%=      5-min Rain = 0
KPD2 222033Z 33016G25KT 03/M09 A2999 RMK A01 T00311091  RH  040%=      5-min Rain = 0
KPD2 222034Z 33017G22KT 03/M09 A2999 RMK A01 T00341090  RH  040%=      5-min Rain = 0
KPD2 222035Z 35014G22KT 03/M09 A2999 RMK A01 T00321093  RH  039%=      5-min Rain = 0
KPD2 222036Z 33019G32KT 03/M09 A2999 RMK A01 T00311094  RH  040%=      5-min Rain = 0
KPD2 222037Z 33022G28KT 03/M10 A2999 RMK A01 T00291095  RH  040%=      5-min Rain = 0
KPD2 222038Z 33016G26KT 03/M10 A2999 RMK A01 T00271095  RH  040%=      5-min Rain = 0
KPD2 222039Z 33013G18KT 03/M09 A2999 RMK A01 T00271093  RH  041%=      5-min Rain = 0
KPD2 222040Z 34017KT 03/M10 A2999 RMK A01 T00261095  RH  041%=      5-min Rain = 0
KPD2 222041Z 34012G21KT 02/M10 A2999 RMK A01 T00221096  RH  041%=      5-min Rain = 0
KPD2 222042Z 33020G26KT 02/M10 A2999 RMK A01 T00211095  RH  042%=      5-min Rain = 0
KPD2 222043Z 33016G22KT 02/M09 A2999 RMK A01 T00221094  RH  042%=      5-min Rain = 0
KPD2 222044Z 32012G17KT 02/M09 A2999 RMK A01 T00231093  RH  042%=      5-min Rain = 0
KPD2 222045Z 32017G23KT 03/M09 A2999 RMK A01 T00271091  RH  042%=      5-min Rain = 0
KPD2 222046Z 32017G22KT 03/M09 A2999 RMK A01 T00271092  RH  041%=      5-min Rain = 0
KPD2 222047Z 33015G21KT 03/M09 A2999 RMK A01 T00271094  RH  040%=      5-min Rain = 0
KPD2 222048Z 34021G28KT 03/M09 A30 RMK A01 T00271094  RH  040%=      5-min Rain = 0
KPD2 222049Z 34019G29KT 03/M10 A30 RMK A01 T00261096  RH  040%=      5-min Rain = 0
KPD2 222050Z 33020G26KT 02/M10 A2999 RMK A01 T00241098  RH  040%=      5-min Rain = 0
KPD2 222051Z 34018G27KT 02/M10 A2999 RMK A01 T00241097  RH  041%=      5-min Rain = 0
KPD2 222052Z 34025G31KT 03/M10 A2999 RMK A01 T00251096  RH  040%=      5-min Rain = 0
KPD2 222053Z 32018G25KT 03/M10 A2999 RMK A01 T00261097  RH  040%=      5-min Rain = 0
KPD2 222054Z 32017KT 03/M10 A2999 RMK A01 T00261097  RH  040%=      5-min Rain = 0
KPD2 222055Z 31015G21KT 03/M10 A2999 RMK A01 T00281095  RH  040%=      5-min Rain = 0
KPD2 222056Z 32016KT 03/M10 A2999 RMK A01 T00311095  RH  039%=      5-min Rain = 0
KPD2 222057Z 34013G18KT 03/M09 A30 RMK A01 T00331094  RH  039%=      5-min Rain = 0
KPD2 222058Z 33018G23KT 03/M09 A30 RMK A01 T00341094  RH  038%=      5-min Rain = 0
KPD2 222059Z 34019G26KT 03/M10 A30 RMK A01 T00321098  RH  038%=      5-min Rain = 0
KPD2 222100Z 34022G28KT 03/M10 A30 RMK A01 T00291099  RH  038%=      5-min Rain = 0
KPD2 222101Z 33020G26KT 03/M10 A30 RMK A01 T00251101  RH  039%=      5-min Rain = 0
KPD2 222102Z 32017G22KT 02/M10 A30 RMK A01 T00241100  RH  040%=      5-min Rain = 0
KPD2 222103Z 33014KT 02/M10 A30 RMK A01 T00241099  RH  040%=      5-min Rain = 0
KPD2 222104Z 33016G25KT 02/M10 A30 RMK A01 T00231099  RH  040%=      5-min Rain = 0
KPD2 222105Z 35016G22KT 02/M10 A30 RMK A01 T00231100  RH  040%=      5-min Rain = 0
KPD2 222106Z 32019G24KT 02/M10 A30 RMK A01 T00231099  RH  040%=      5-min Rain = 0
KPD2 222107Z 33024G29KT 02/M10 A30 RMK A01 T00241100  RH  040%=      5-min Rain = 0
KPD2 222108Z 34018G24KT 02/M10 A30 RMK A01 T00241100  RH  040%=      5-min Rain = 0
KPD2 222109Z 32017G26KT 02/M10 A30 RMK A01 T00241100  RH  040%=      5-min Rain = 0
KPD2 222110Z 31018G25KT 03/M10 A30 RMK A01 T00251098  RH  040%=      5-min Rain = 0
KPD2 222111Z 32013KT 03/M10 A30 RMK A01 T00281097  RH  039%=      5-min Rain = 0
KPD2 222112Z 30016G27KT 03/M10 A30 RMK A01 T00301097  RH  039%=      5-min Rain = 0
KPD2 222113Z 32020G26KT 03/M10 A30 RMK A01 T00301098  RH  038%=      5-min Rain = 0
KPD2 222114Z 32018G25KT 03/M10 A30 RMK A01 T00311097  RH  038%=      5-min Rain = 0
KPD2 222115Z 35013KT 03/M10 A3001 RMK A01 T00321097  RH  038%=      5-min Rain = 0
KPD2 222116Z 34013KT 03/M10 A3001 RMK A01 T00341095  RH  038%=      5-min Rain = 0
KPD2 222117Z 34018G24KT 04/M09 A3001 RMK A01 T00361094  RH  038%=      5-min Rain = 0
KPD2 222118Z 34020G25KT 04/M10 A3001 RMK A01 T00351097  RH  037%=      5-min Rain = 0
KPD2 222119Z 34020G28KT 03/M10 A3002 RMK A01 T00291101  RH  038%=      5-min Rain = 0
KPD2 222120Z 34017G22KT 03/M10 A3002 RMK A01 T00251102  RH  039%=      5-min Rain = 0
KPD2 222121Z 33014G20KT 02/M10 A3002 RMK A01 T00221101  RH  040%=      5-min Rain = 0
KPD2 222122Z 34014G21KT 02/M10 A3002 RMK A01 T00221099  RH  040%=      5-min Rain = 0
KPD2 222123Z 35016G22KT 02/M10 A3002 RMK A01 T00231098  RH  040%=      5-min Rain = 0
KPD2 222124Z 34021G26KT 02/M10 A3002 RMK A01 T00221100  RH  040%=      5-min Rain = 0
KPD2 222125Z 35018KT 02/M10 A3002 RMK A01 T00211100  RH  040%=      5-min Rain = 0
KPD2 222126Z 34012KT 02/M10 A3002 RMK A01 T00211100  RH  040%=      5-min Rain = 0
KPD2 222127Z 33008G13KT 02/M10 A3002 RMK A01 T00241097  RH  040%=      5-min Rain = 0
KPD2 222128Z 33017G25KT 03/M10 A3002 RMK A01 T00271096  RH  040%=      5-min Rain = 0
KPD2 222129Z 32017G25KT 03/M10 A3002 RMK A01 T00271098  RH  039%=      5-min Rain = 0
KPD2 222130Z 34015G26KT 03/M10 A3002 RMK A01 T00281098  RH  039%=      5-min Rain = 0
KPD2 222131Z 34019G28KT 03/M10 A3002 RMK A01 T00291099  RH  039%=      5-min Rain = 0
KPD2 222132Z 33019G24KT 03/M10 A3002 RMK A01 T00291100  RH  038%=      5-min Rain = 0
KPD2 222133Z 34015G22KT 03/M10 A3002 RMK A01 T00281101  RH  038%=      5-min Rain = 0
KPD2 222134Z 34018G24KT 03/M10 A3002 RMK A01 T00291100  RH  038%=      5-min Rain = 0
KPD2 222135Z 34019G26KT 03/M10 A3002 RMK A01 T00301101  RH  038%=      5-min Rain = 0
KPD2 222136Z 32015G20KT 03/M10 A3002 RMK A01 T00291102  RH  037%=      5-min Rain = 0
KPD2 222137Z 31017G22KT 03/M10 A3002 RMK A01 T00291102  RH  038%=      5-min Rain = 0
KPD2 222138Z 33020G29KT 03/M10 A3002 RMK A01 T00291102  RH  038%=      5-min Rain = 0
KPD2 222139Z 32019G32KT 03/M10 A3002 RMK A01 T00271104  RH  037%=      5-min Rain = 0
KPD2 222140Z 32023G28KT 03/M11 A3002 RMK A01 T00261105  RH  038%=      5-min Rain = 0
KPD2 222141Z 32021G27KT 03/M11 A3002 RMK A01 T00261105  RH  038%=      5-min Rain = 0
KPD2 222142Z 33023G28KT 03/M10 A3002 RMK A01 T00271104  RH  038%=      5-min Rain = 0
KPD2 222143Z 32015KT 03/M10 A3003 RMK A01 T00281103  RH  037%=      5-min Rain = 0
KPD2 222144Z 33016G25KT 03/M10 A3003 RMK A01 T00301102  RH  037%=      5-min Rain = 0
KPD2 222145Z 34019G27KT 03/M10 A3003 RMK A01 T00311102  RH  037%=      5-min Rain = 0
KPD2 222146Z 34016G23KT 03/M10 A3003 RMK A01 T00321103  RH  037%=      5-min Rain = 0
KPD2 222147Z 34016KT 03/M10 A3002 RMK A01 T00331102  RH  037%=      5-min Rain = 0
KPD2 222148Z 35018G25KT 03/M10 A3002 RMK A01 T00331102  RH  036%=      5-min Rain = 0
KPD2 222149Z 35020G27KT 03/M10 A3002 RMK A01 T00331103  RH  036%=      5-min Rain = 0
KPD2 222150Z 33014G19KT 03/M10 A3002 RMK A01 T00331103  RH  036%=      5-min Rain = 0
KPD2 222151Z 32012G20KT 03/M10 A3002 RMK A01 T00341101  RH  036%=      5-min Rain = 0
KPD2 222152Z 35015G21KT 04/M10 A3003 RMK A01 T00351101  RH  036%=      5-min Rain = 0
KPD2 222153Z 34018G23KT 04/M10 A3003 RMK A01 T00371100  RH  036%=      5-min Rain = 0
KPD2 222154Z 34017G22KT 04/M10 A3003 RMK A01 T00391100  RH  036%=      5-min Rain = 0
KPD2 222155Z 34015KT 04/M10 A3003 RMK A01 T00381102  RH  035%=      5-min Rain = 0
KPD2 222156Z 32014G24KT 04/M10 A3003 RMK A01 T00391100  RH  036%=      5-min Rain = 0
KPD2 222157Z 34018G23KT 04/M10 A3003 RMK A01 T00391102  RH  035%=      5-min Rain = 0
KPD2 222158Z 34016G23KT 04/M10 A3003 RMK A01 T00381103  RH  035%=      5-min Rain = 0
KPD2 222159Z 34015G28KT 04/M10 A3003 RMK A01 T00381102  RH  035%=      5-min Rain = 0
KPD2 222200Z 35023G30KT 04/M10 A3003 RMK A01 T00371103  RH  035%=      5-min Rain = 0
KPD2 222201Z 34016G24KT 04/M10 A3004 RMK A01 T00361104  RH  035%=      5-min Rain = 0
KPD2 222202Z 35017G23KT 04/M10 A3004 RMK A01 T00371102  RH  035%=      5-min Rain = 0
KPD2 222203Z 34014G21KT 04/M10 A3004 RMK A01 T00381102  RH  035%=      5-min Rain = 0
KPD2 222204Z 34017KT 04/M10 A3004 RMK A01 T00381101  RH  035%=      5-min Rain = 0
KPD2 222205Z 34020G31KT 04/M10 A3004 RMK A01 T00361103  RH  035%=      5-min Rain = 0
KPD2 222206Z 33018G27KT 03/M10 A3004 RMK A01 T00331104  RH  036%=      5-min Rain = 0
KPD2 222207Z 34018G25KT 03/M10 A3004 RMK A01 T00311103  RH  037%=      5-min Rain = 0
KPD2 222208Z 34021G30KT 03/M10 A3004 RMK A01 T00291103  RH  037%=      5-min Rain = 0
KPD2 222209Z 33018G26KT 03/M10 A3004 RMK A01 T00261104  RH  038%=      5-min Rain = 0
KPD2 222210Z 33020KT 02/M10 A3005 RMK A01 T00241104  RH  038%=      5-min Rain = 0
KPD2 222211Z 34022G29KT 02/M10 A3004 RMK A01 T00221103  RH  039%=      5-min Rain = 0
KPD2 222212Z 33019KT 02/M10 A3004 RMK A01 T00211102  RH  040%=      5-min Rain = 0
KPD2 222213Z 32017G22KT 02/M10 A3004 RMK A01 T00201101  RH  040%=      5-min Rain = 0
KPD2 222214Z 33020G28KT 02/M10 A3004 RMK A01 T00201101  RH  040%=      5-min Rain = 0
KPD2 222215Z 32015G24KT 02/M10 A3005 RMK A01 T00211101  RH  040%=      5-min Rain = 0
KPD2 222216Z 33016G21KT 02/M10 A3005 RMK A01 T00211101  RH  040%=      5-min Rain = 0
KPD2 222217Z 33016G21KT 02/M10 A3005 RMK A01 T00211101  RH  040%=      5-min Rain = 0
KPD2 222218Z 34016G21KT 02/M10 A3005 RMK A01 T00211102  RH  040%=      5-min Rain = 0
KPD2 222219Z 32011G20KT 02/M10 A3005 RMK A01 T00211101  RH  040%=      5-min Rain = 0
KPD2 222220Z 33015G23KT 02/M10 A3005 RMK A01 T00211100  RH  040%=      5-min Rain = 0
KPD2 222221Z 34010KT 02/M10 A3005 RMK A01 T00221100  RH  040%=      5-min Rain = 0
KPD2 222222Z 32010KT 02/M10 A3006 RMK A01 T00231100  RH  040%=      5-min Rain = 0
KPD2 222223Z 34010KT 02/M10 A3006 RMK A01 T00231099  RH  040%=      5-min Rain = 0
KPD2 222224Z 34014G19KT 02/M10 A3006 RMK A01 T00231099  RH  040%=      5-min Rain = 0
KPD2 222225Z 35013KT 02/M10 A3006 RMK A01 T00221099  RH  040%=      5-min Rain = 0
KPD2 222226Z 35020G29KT 02/M10 A3006 RMK A01 T00211099  RH  041%=      5-min Rain = 0
KPD2 222227Z 35017G23KT 02/M10 A3006 RMK A01 T00191099  RH  041%=      5-min Rain = 0
KPD2 222228Z 33013KT 02/M10 A3006 RMK A01 T00191097  RH  042%=      5-min Rain = 0
KPD2 222229Z 33013G19KT 02/M10 A3006 RMK A01 T00201096  RH  042%=      5-min Rain = 0
KPD2 222230Z 34015KT 02/M10 A3006 RMK A01 T00211096  RH  042%=      5-min Rain = 0
KPD2 222231Z 32017G26KT 02/M10 A3006 RMK A01 T00211096  RH  042%=      5-min Rain = 0
KPD2 222232Z 33011KT 02/M10 A3006 RMK A01 T00201095  RH  042%=      5-min Rain = 0
KPD2 222233Z 33015G21KT 02/M09 A3006 RMK A01 T00201094  RH  042%=      5-min Rain = 0
KPD2 222234Z 33012G17KT 02/M09 A3006 RMK A01 T00211094  RH  042%=      5-min Rain = 0
KPD2 222235Z 34013G18KT 02/M09 A3006 RMK A01 T00221093  RH  042%=      5-min Rain = 0
KPD2 222236Z 33010G16KT 02/M09 A3006 RMK A01 T00231093  RH  042%=      5-min Rain = 0
KPD2 222237Z 33015KT 03/M09 A3006 RMK A01 T00251091  RH  042%=      5-min Rain = 0
KPD2 222238Z 33017KT 03/M09 A3007 RMK A01 T00261091  RH  042%=      5-min Rain = 0
KPD2 222239Z 33016G21KT 03/M09 A3006 RMK A01 T00251093  RH  042%=      5-min Rain = 0
KPD2 222240Z 35016G22KT 02/M09 A3007 RMK A01 T00231093  RH  042%=      5-min Rain = 0
KPD2 222241Z 35016G22KT 02/M09 A3007 RMK A01 T00211093  RH  043%=      5-min Rain = 0
KPD2 222242Z 35017KT 02/M09 A3007 RMK A01 T00191093  RH  043%=      5-min Rain = 0
KPD2 222243Z 34013G22KT 02/M09 A3006 RMK A01 T00171093  RH  044%=      5-min Rain = 0
KPD2 222244Z 34020G28KT 02/M09 A3006 RMK A01 T00161093  RH  044%=      5-min Rain = 0
KPD2 222245Z 35018G24KT 02/M09 A3007 RMK A01 T00151092  RH  045%=      5-min Rain = 0
KPD2 222246Z 35016G22KT 01/M09 A3007 RMK A01 T00141092  RH  045%=      5-min Rain = 0
KPD2 222247Z 33015KT 01/M09 A3006 RMK A01 T00131091  RH  046%=      5-min Rain = 0
KPD2 222248Z 34012KT 01/M09 A3007 RMK A01 T00131091  RH  046%=      5-min Rain = 0
KPD2 222249Z 34012KT 01/M09 A3007 RMK A01 T00131090  RH  046%=      5-min Rain = 0
KPD2 222250Z 35010KT 01/M09 A3007 RMK A01 T00141089  RH  046%=      5-min Rain = 0
KPD2 222251Z 34010KT 02/M09 A3007 RMK A01 T00161088  RH  046%=      5-min Rain = 0
KPD2 222252Z 33013G19KT 02/M09 A3007 RMK A01 T00171087  RH  046%=      5-min Rain = 0
KPD2 222253Z 34012G18KT 02/M09 A3007 RMK A01 T00171087  RH  046%=      5-min Rain = 0
KPD2 222254Z 35018G25KT 02/M09 A3007 RMK A01 T00181087  RH  046%=      5-min Rain = 0
KPD2 222255Z 33013G19KT 02/M09 A3007 RMK A01 T00171087  RH  046%=      5-min Rain = 0
KPD2 222256Z 33015G22KT 02/M09 A3007 RMK A01 T00161087  RH  046%=      5-min Rain = 0
KPD2 222257Z 34017G22KT 02/M09 A3007 RMK A01 T00161088  RH  046%=      5-min Rain = 0
KPD2 222258Z 34013KT 02/M09 A3007 RMK A01 T00151088  RH  046%=      5-min Rain = 0
KPD2 222259Z 32015G22KT 02/M09 A3007 RMK A01 T00151087  RH  046%=      5-min Rain = 0
KPD2 222300Z 32015G22KT 02/M09 A3007 RMK A01 T00171087  RH  046%=      5-min Rain = 0
KPD2 222301Z 33020G25KT 02/M09 A3007 RMK A01 T00171087  RH  046%=      5-min Rain = 0
KPD2 222302Z 33014KT 02/M09 A3008 RMK A01 T00171089  RH  045%=      5-min Rain = 0
KPD2 222303Z 32012G17KT 02/M09 A3008 RMK A01 T00161089  RH  046%=      5-min Rain = 0
KPD2 222304Z 35009G14KT 02/M09 A3008 RMK A01 T00161089  RH  046%=      5-min Rain = 0
KPD2 222305Z 34012G17KT 02/M09 A3008 RMK A01 T00161089  RH  046%=      5-min Rain = 0
KPD2 222306Z 34009G14KT 02/M09 A3008 RMK A01 T00151090  RH  046%=      5-min Rain = 0
KPD2 222307Z 34010KT 01/M09 A3008 RMK A01 T00131090  RH  046%=      5-min Rain = 0
KPD2 222308Z 33008KT 01/M09 A3008 RMK A01 T00121091  RH  046%=      5-min Rain = 0
KPD2 222309Z 34008KT 01/M09 A3008 RMK A01 T00121090  RH  047%=      5-min Rain = 0
KPD2 222310Z 33009G14KT 01/M09 A3008 RMK A01 T00121090  RH  047%=      5-min Rain = 0
KPD2 222311Z 33007KT 01/M09 A3008 RMK A01 T00111090  RH  047%=      5-min Rain = 0
KPD2 222312Z 35011G21KT 01/M09 A3009 RMK A01 T00101090  RH  047%=      5-min Rain = 0
KPD2 222313Z 35014G19KT 01/M09 A3008 RMK A01 T00101090  RH  047%=      5-min Rain = 0
KPD2 222314Z 33012G17KT 01/M09 A3009 RMK A01 T00101091  RH  047%=      5-min Rain = 0
KPD2 222315Z 33014G23KT 01/M09 A3009 RMK A01 T00101091  RH  047%=      5-min Rain = 0
KPD2 222316Z 34012KT 01/M09 A3009 RMK A01 T00091091  RH  047%=      5-min Rain = 0
KPD2 222317Z 35012KT 01/M09 A3009 RMK A01 T00091091  RH  047%=      5-min Rain = 0
KPD2 222318Z 33011KT 01/M09 A3009 RMK A01 T00091091  RH  047%=      5-min Rain = 0
KPD2 222319Z 33009KT 01/M09 A3009 RMK A01 T00091091  RH  047%=      5-min Rain = 0
KPD2 222320Z 34012G20KT 01/M09 A3009 RMK A01 T00091091  RH  047%=      5-min Rain = 0
KPD2 222321Z 32014G20KT 01/M09 A3009 RMK A01 T00101090  RH  047%=      5-min Rain = 0
KPD2 222322Z 34014KT 01/M09 A3009 RMK A01 T00101090  RH  047%=      5-min Rain = 0
KPD2 222323Z 33012G18KT 01/M09 A3009 RMK A01 T00101090  RH  047%=      5-min Rain = 0
KPD2 222324Z 34012KT 01/M09 A301 RMK A01 T00101089  RH  048%=      5-min Rain = 0
KPD2 222325Z 34011G16KT 01/M09 A301 RMK A01 T00101089  RH  048%=      5-min Rain = 0
KPD2 222326Z 34017G22KT 01/M09 A301 RMK A01 T00101088  RH  048%=      5-min Rain = 0
KPD2 222327Z 32015G20KT 01/M09 A3009 RMK A01 T00101088  RH  048%=      5-min Rain = 0
KPD2 222328Z 34013G18KT 01/M09 A301 RMK A01 T00101087  RH  048%=      5-min Rain = 0
KPD2 222329Z 32016G25KT 01/M09 A301 RMK A01 T00101087  RH  048%=      5-min Rain = 0
KPD2 222330Z 33016KT 01/M09 A3009 RMK A01 T00101087  RH  048%=      5-min Rain = 0
KPD2 222331Z 33012KT 01/M09 A3009 RMK A01 T00101087  RH  048%=      5-min Rain = 0
KPD2 222332Z 32011KT 01/M09 A301 RMK A01 T00101087  RH  048%=      5-min Rain = 0
KPD2 222333Z 32017G22KT 01/M09 A301 RMK A01 T00101087  RH  048%=      5-min Rain = 0
KPD2 222334Z 33015KT 01/M09 A301 RMK A01 T00091088  RH  048%=      5-min Rain = 0
KPD2 222335Z 32013G18KT 01/M09 A301 RMK A01 T00091088  RH  048%=      5-min Rain = 0
KPD2 222336Z 33011KT 01/M09 A301 RMK A01 T00081088  RH  049%=      5-min Rain = 0
KPD2 222337Z 33013G19KT 01/M09 A301 RMK A01 T00081088  RH  049%=      5-min Rain = 0
KPD2 222338Z 32011KT 01/M09 A301 RMK A01 T00081088  RH  049%=      5-min Rain = 0
KPD2 222339Z 33011G17KT 01/M09 A301 RMK A01 T00071088  RH  049%=      5-min Rain = 0
KPD2 222340Z 33009KT 01/M09 A301 RMK A01 T00071088  RH  049%=      5-min Rain = 0
KPD2 222341Z 35011KT 01/M09 A301 RMK A01 T00061088  RH  049%=      5-min Rain = 0
KPD2 222342Z 34010KT 01/M09 A3011 RMK A01 T00051088  RH  050%=      5-min Rain = 0
KPD2 222343Z 33005KT 01/M09 A3011 RMK A01 T00051088  RH  050%=      5-min Rain = 0
KPD2 222344Z 33008G14KT 00/M09 A3011 RMK A01 T00041088  RH  050%=      5-min Rain = 0
KPD2 222345Z 34011KT 00/M09 A3011 RMK A01 T00041088  RH  050%=      5-min Rain = 0
KPD2 222346Z 32009KT 00/M09 A3011 RMK A01 T00031088  RH  050%=      5-min Rain = 0
KPD2 222347Z 34009KT 00/M09 A3011 RMK A01 T00031088  RH  051%=      5-min Rain = 0
KPD2 222348Z 33010KT 00/M09 A3011 RMK A01 T00021088  RH  051%=      5-min Rain = 0
KPD2 222349Z 34013KT 00/M09 A3011 RMK A01 T00021087  RH  051%=      5-min Rain = 0
KPD2 222350Z 34010KT 00/M09 A3011 RMK A01 T00021086  RH  052%=      5-min Rain = 0
KPD2 222351Z 32006KT 00/M09 A3011 RMK A01 T00011086  RH  052%=      5-min Rain = 0
KPD2 222352Z 34007KT 00/M09 A3011 RMK A01 T00011086  RH  052%=      5-min Rain = 0
KPD2 222353Z 33008KT 00/M09 A3011 RMK A01 T00011086  RH  052%=      5-min Rain = 0
KPD2 222354Z 32009KT 00/09 A3011 RMK A01 T00-00-87  RH  052%=      5-min Rain = 0
KPD2 222355Z 32010KT 00/09 A3011 RMK A01 T00-00-86  RH  053%=      5-min Rain = 0
KPD2 222356Z 30010KT M00/M09 A3011 RMK A01 T10011086  RH  053%=      5-min Rain = 0
KPD2 222357Z 30008KT 00/09 A3011 RMK A01 T00-00-85  RH  053%=      5-min Rain = 0
KPD2 222358Z 34010KT M00/M09 A3011 RMK A01 T10011085  RH  053%=      5-min Rain = 0
KPD2 222359Z 33010KT M00/M09 A3011 RMK A01 T10011085  RH  053%=      5-min Rain = 0
KPD2 230000Z 32011KT M00/M09 A3011 RMK A01 T10021085  RH  053%=      5-min Rain = 0
KPD2 230001Z 32008KT M00/M09 A3011 RMK A01 T10021085  RH  054%=      5-min Rain = 0
KPD2 230002Z 33009KT M00/M09 A3011 RMK A01 T10021085  RH  054%=      5-min Rain = 0
KPD2 230003Z 32009KT M00/M09 A3011 RMK A01 T10021085  RH  054%=      5-min Rain = 0
KPD2 230004Z 33008KT M00/M09 A3011 RMK A01 T10031085  RH  054%=      5-min Rain = 0
KPD2 230005Z 32006KT M00/M09 A3011 RMK A01 T10031085  RH  054%=      5-min Rain = 0
KPD2 230006Z 32008KT M00/M09 A3011 RMK A01 T10031085  RH  054%=      5-min Rain = 0
KPD2 230007Z 32009KT M00/M09 A3011 RMK A01 T10041085  RH  054%=      5-min Rain = 0
KPD2 230008Z 33008KT M00/M08 A3011 RMK A01 T10041084  RH  055%=      5-min Rain = 0
KPD2 230009Z 33005KT M00/M08 A3011 RMK A01 T10041084  RH  055%=      5-min Rain = 0
KPD2 230010Z 32008G13KT M01/M09 A3011 RMK A01 T10051085  RH  055%=      5-min Rain = 0
KPD2 230011Z 31008KT M01/M08 A3011 RMK A01 T10061084  RH  055%=      5-min Rain = 0
KPD2 230012Z 31008KT M01/M08 A3011 RMK A01 T10061084  RH  056%=      5-min Rain = 0
KPD2 230013Z 31009KT M01/M08 A3011 RMK A01 T10061083  RH  056%=      5-min Rain = 0
KPD2 230014Z 32008KT M01/M08 A3011 RMK A01 T10051083  RH  056%=      5-min Rain = 0
KPD2 230015Z 32007KT M00/M08 A3011 RMK A01 T10041082  RH  056%=      5-min Rain = 0
KPD2 230016Z 31008KT M00/M08 A3011 RMK A01 T10041082  RH  056%=      5-min Rain = 0
KPD2 230017Z 32007KT M00/M08 A3011 RMK A01 T10041082  RH  056%=      5-min Rain = 0
KPD2 230018Z 31007KT M00/M08 A3011 RMK A01 T10041081  RH  056%=      5-min Rain = 0
KPD2 230019Z 32008KT M00/M08 A3011 RMK A01 T10041081  RH  056%=      5-min Rain = 0
KPD2 230020Z 31009KT M00/M08 A3012 RMK A01 T10031080  RH  056%=      5-min Rain = 0
KPD2 230021Z 32008KT M00/M08 A3012 RMK A01 T10031080  RH  056%=      5-min Rain = 0
KPD2 230022Z 32009KT M00/M08 A3012 RMK A01 T10031079  RH  056%=      5-min Rain = 0
KPD2 230023Z 33007KT M00/M08 A3012 RMK A01 T10021079  RH  056%=      5-min Rain = 0
KPD2 230024Z 31007KT M00/M08 A3012 RMK A01 T10021079  RH  056%=      5-min Rain = 0
KPD2 230025Z 31010KT M00/M08 A3012 RMK A01 T10021078  RH  056%=      5-min Rain = 0
KPD2 230026Z 31010KT M00/M08 A3012 RMK A01 T10021078  RH  057%=      5-min Rain = 0
KPD2 230027Z 32008KT M00/M08 A3012 RMK A01 T10021078  RH  057%=      5-min Rain = 0
KPD2 230028Z 31006KT M00/M08 A3012 RMK A01 T10021077  RH  057%=      5-min Rain = 0
KPD2 230029Z 32007KT M00/M08 A3012 RMK A01 T10021077  RH  057%=      5-min Rain = 0
KPD2 230030Z 29009KT M00/M08 A3012 RMK A01 T10021077  RH  057%=      5-min Rain = 0
KPD2 230031Z 31009KT M00/M08 A3012 RMK A01 T10021077  RH  057%=      5-min Rain = 0
KPD2 230032Z 32007KT M00/M08 A3012 RMK A01 T10021077  RH  057%=      5-min Rain = 0
KPD2 230033Z 31010KT M00/M08 A3012 RMK A01 T10011077  RH  057%=      5-min Rain = 0
KPD2 230034Z 31008KT M00/M08 A3012 RMK A01 T10011077  RH  057%=      5-min Rain = 0
KPD2 230035Z 32009KT M00/M08 A3012 RMK A01 T10011077  RH  057%=      5-min Rain = 0
KPD2 230036Z 31009KT M00/M08 A3012 RMK A01 T10011077  RH  057%=      5-min Rain = 0
KPD2 230037Z 32008KT M00/M08 A3012 RMK A01 T10011077  RH  057%=      5-min Rain = 0
KPD2 230038Z 30007KT M00/M08 A3012 RMK A01 T10011077  RH  057%=      5-min Rain = 0
KPD2 230039Z 33009G14KT M00/M08 A3012 RMK A01 T10011076  RH  057%=      5-min Rain = 0
KPD2 230040Z 33012KT M00/M08 A3012 RMK A01 T10011075  RH  057%=      5-min Rain = 0
KPD2 230041Z 33013KT M00/M08 A3012 RMK A01 T10011075  RH  058%=      5-min Rain = 0
KPD2 230042Z 34011KT M00/M08 A3012 RMK A01 T10011075  RH  058%=      5-min Rain = 0
KPD2 230043Z 33010KT M00/M08 A3012 RMK A01 T10011075  RH  058%=      5-min Rain = 0
KPD2 230044Z 33011KT M00/M07 A3012 RMK A01 T10011074  RH  058%=      5-min Rain = 0
KPD2 230045Z 34009KT M00/M07 A3012 RMK A01 T10011074  RH  058%=      5-min Rain = 0
KPD2 230046Z 32010KT M00/M07 A3012 RMK A01 T10021074  RH  058%=      5-min Rain = 0
KPD2 230047Z 34011G18KT M00/M07 A3012 RMK A01 T10021074  RH  058%=      5-min Rain = 0
KPD2 230048Z 34011G16KT M00/M07 A3012 RMK A01 T10021074  RH  058%=      5-min Rain = 0
KPD2 230049Z 32007KT M00/M07 A3012 RMK A01 T10021074  RH  058%=      5-min Rain = 0
KPD2 230050Z 33007KT M00/M07 A3012 RMK A01 T10021074  RH  058%=      5-min Rain = 0
KPD2 230051Z 33010KT M00/M07 A3012 RMK A01 T10021074  RH  058%=      5-min Rain = 0
KPD2 230052Z 33007KT M00/M07 A3012 RMK A01 T10021074  RH  059%=      5-min Rain = 0
KPD2 230053Z 32007KT M00/M07 A3012 RMK A01 T10021074  RH  059%=      5-min Rain = 0
KPD2 230054Z 32007KT M00/M07 A3012 RMK A01 T10021074  RH  059%=      5-min Rain = 0
KPD2 230055Z 30009KT M00/M07 A3013 RMK A01 T10031074  RH  059%=      5-min Rain = 0
KPD2 230056Z 30009KT M00/M07 A3012 RMK A01 T10031074  RH  059%=      5-min Rain = 0
KPD2 230057Z 33008KT M00/M07 A3012 RMK A01 T10031073  RH  059%=      5-min Rain = 0
KPD2 230058Z 32009KT M00/M07 A3013 RMK A01 T10031073  RH  059%=      5-min Rain = 0
KPD2 230059Z 32010KT M00/M07 A3013 RMK A01 T10031073  RH  060%=      5-min Rain = 0
KPD2 230100Z 32009KT M00/M07 A3013 RMK A01 T10041072  RH  060%=      5-min Rain = 0
KPD2 230101Z 32012KT M00/M07 A3013 RMK A01 T10041071  RH  060%=      5-min Rain = 0
KPD2 230102Z 32010G17KT M00/M07 A3013 RMK A01 T10041071  RH  060%=      5-min Rain = 0
KPD2 230103Z 33009KT M00/M07 A3013 RMK A01 T10041071  RH  060%=      5-min Rain = 0
KPD2 230104Z 32011KT M00/M07 A3013 RMK A01 T10041071  RH  060%=      5-min Rain = 0
KPD2 230105Z 31011KT M00/M07 A3013 RMK A01 T10041071  RH  061%=      5-min Rain = 0
KPD2 230106Z 31012KT M00/M07 A3013 RMK A01 T10041070  RH  061%=      5-min Rain = 0
KPD2 230107Z 32011KT M00/M07 A3013 RMK A01 T10041070  RH  061%=      5-min Rain = 0
KPD2 230108Z 31009KT M00/M07 A3013 RMK A01 T10041069  RH  061%=      5-min Rain = 0
KPD2 230109Z 33010KT M00/M07 A3013 RMK A01 T10041069  RH  061%=      5-min Rain = 0
KPD2 230110Z 32010KT M00/M07 A3013 RMK A01 T10041069  RH  062%=      5-min Rain = 0
KPD2 230111Z 33008KT M00/M07 A3013 RMK A01 T10041069  RH  062%=      5-min Rain = 0
KPD2 230112Z 31009KT M00/M07 A3013 RMK A01 T10041069  RH  062%=      5-min Rain = 0
KPD2 230113Z 31010G16KT M00/M07 A3013 RMK A01 T10041068  RH  062%=      5-min Rain = 0
KPD2 230114Z 33008KT M00/M07 A3013 RMK A01 T10041068  RH  062%=      5-min Rain = 0
KPD2 230115Z 31010KT M01/M07 A3013 RMK A01 T10051068  RH  062%=      5-min Rain = 0
KPD2 230116Z 30010KT M01/M07 A3013 RMK A01 T10051068  RH  062%=      5-min Rain = 0
KPD2 230117Z 30008KT M01/M07 A3014 RMK A01 T10051068  RH  062%=      5-min Rain = 0
KPD2 230118Z 32007KT M01/M07 A3014 RMK A01 T10051068  RH  062%=      5-min Rain = 0
KPD2 230119Z 32009KT M01/M07 A3014 RMK A01 T10051068  RH  062%=      5-min Rain = 0
KPD2 230120Z 33007G12KT M01/M07 A3014 RMK A01 T10061069  RH  063%=      5-min Rain = 0
KPD2 230121Z 32007KT M01/M07 A3014 RMK A01 T10061068  RH  063%=      5-min Rain = 0
KPD2 230122Z 31008KT M01/M07 A3014 RMK A01 T10071068  RH  063%=      5-min Rain = 0
KPD2 230123Z 32008KT M01/M07 A3014 RMK A01 T10071068  RH  063%=      5-min Rain = 0
KPD2 230124Z 31008KT M01/M07 A3014 RMK A01 T10071068  RH  063%=      5-min Rain = 0
KPD2 230125Z 33009KT M01/M07 A3014 RMK A01 T10061067  RH  064%=      5-min Rain = 0
KPD2 230126Z 33009KT M01/M07 A3014 RMK A01 T10071067  RH  064%=      5-min Rain = 0
KPD2 230127Z 34010KT M01/M07 A3014 RMK A01 T10071067  RH  064%=      5-min Rain = 0
KPD2 230128Z 32009KT M01/M07 A3014 RMK A01 T10071066  RH  064%=      5-min Rain = 0
KPD2 230129Z 31008KT M01/M07 A3014 RMK A01 T10071066  RH  064%=      5-min Rain = 0
KPD2 230130Z 32011KT M01/M07 A3014 RMK A01 T10071066  RH  064%=      5-min Rain = 0
KPD2 230131Z 33005KT M01/M07 A3014 RMK A01 T10061066  RH  064%=      5-min Rain = 0
KPD2 230132Z 33008KT M01/M07 A3014 RMK A01 T10061066  RH  064%=      5-min Rain = 0
KPD2 230133Z 32007KT M01/M07 A3014 RMK A01 T10071066  RH  064%=      5-min Rain = 0
KPD2 230134Z 32010KT M01/M07 A3014 RMK A01 T10071066  RH  064%=      5-min Rain = 0
KPD2 230135Z 32009KT M01/M07 A3014 RMK A01 T10081066  RH  065%=      5-min Rain = 0
KPD2 230136Z 31008KT M01/M07 A3014 RMK A01 T10071065  RH  065%=      5-min Rain = 0
KPD2 230137Z 32007KT M01/M07 A3014 RMK A01 T10071066  RH  065%=      5-min Rain = 0
KPD2 230138Z 32008KT M01/M07 A3014 RMK A01 T10081066  RH  065%=      5-min Rain = 0
KPD2 230139Z 33007KT M01/M07 A3014 RMK A01 T10081066  RH  065%=      5-min Rain = 0
KPD2 230140Z 34006KT M01/M07 A3014 RMK A01 T10091066  RH  065%=      5-min Rain = 0
KPD2 230141Z 33006KT M01/M07 A3014 RMK A01 T10091066  RH  065%=      5-min Rain = 0
KPD2 230142Z 33007KT M01/M07 A3014 RMK A01 T10091065  RH  066%=      5-min Rain = 0
KPD2 230143Z 33006KT M01/M07 A3014 RMK A01 T10091065  RH  066%=      5-min Rain = 0
KPD2 230144Z 32008KT M01/M07 A3014 RMK A01 T10091066  RH  066%=      5-min Rain = 0
KPD2 230145Z 32007KT M01/M07 A3014 RMK A01 T10091065  RH  066%=      5-min Rain = 0
KPD2 230146Z 32006KT M01/M07 A3014 RMK A01 T10091065  RH  066%=      5-min Rain = 0
KPD2 230147Z 33006KT M01/M07 A3014 RMK A01 T10091065  RH  066%=      5-min Rain = 0
KPD2 230148Z 31006KT M01/M07 A3014 RMK A01 T10091065  RH  066%=      5-min Rain = 0
KPD2 230149Z 31008KT M01/M07 A3014 RMK A01 T10101066  RH  066%=      5-min Rain = 0
KPD2 230150Z 31007KT M01/M07 A3014 RMK A01 T10101065  RH  066%=      5-min Rain = 0
KPD2 230151Z 32008KT M01/M07 A3014 RMK A01 T10101065  RH  066%=      5-min Rain = 0
KPD2 230152Z 32006KT M01/M07 A3014 RMK A01 T10101065  RH  066%=      5-min Rain = 0
KPD2 230153Z 32005KT M01/M07 A3014 RMK A01 T10101065  RH  066%=      5-min Rain = 0
KPD2 230154Z 33007KT M01/M07 A3014 RMK A01 T10101065  RH  066%=      5-min Rain = 0
KPD2 230155Z 33006KT M01/M07 A3014 RMK A01 T10101065  RH  067%=      5-min Rain = 0
KPD2 230201Z 32009KT M01/M06 A3014 RMK A01 T10121064  RH  067%=      5-min Rain = 0
KPD2 230202Z 31008KT M01/M06 A3014 RMK A01 T10111063  RH  068%=      5-min Rain = 0
KPD2 230203Z 31007KT M01/M06 A3014 RMK A01 T10111063  RH  067%=      5-min Rain = 0
KPD2 230204Z 32008KT M01/M06 A3014 RMK A01 T10111064  RH  067%=      5-min Rain = 0
KPD2 230205Z 33007KT M01/M06 A3014 RMK A01 T10111064  RH  067%=      5-min Rain = 0
KPD2 230206Z 32007KT M01/M06 A3014 RMK A01 T10111064  RH  067%=      5-min Rain = 0
KPD2 230207Z 32007KT M01/M06 A3014 RMK A01 T10111064  RH  067%=      5-min Rain = 0
KPD2 230208Z 30006KT M01/M07 A3014 RMK A01 T10121065  RH  067%=      5-min Rain = 0
KPD2 230209Z 31006KT M01/M07 A3014 RMK A01 T10121065  RH  067%=      5-min Rain = 0
KPD2 230210Z 30006KT M01/M06 A3014 RMK A01 T10121064  RH  068%=      5-min Rain = 0
KPD2 230211Z 32006KT M01/M07 A3014 RMK A01 T10131065  RH  068%=      5-min Rain = 0
KPD2 230212Z 32008KT M01/M07 A3014 RMK A01 T10141065  RH  068%=      5-min Rain = 0
KPD2 230213Z 31007KT M01/M07 A3014 RMK A01 T10131065  RH  068%=      5-min Rain = 0
KPD2 230214Z 31008KT M01/M06 A3014 RMK A01 T10131064  RH  068%=      5-min Rain = 0
KPD2 230215Z 30007KT M01/M06 A3014 RMK A01 T10131064  RH  068%=      5-min Rain = 0
KPD2 230216Z 31007KT M01/M06 A3014 RMK A01 T10131064  RH  068%=      5-min Rain = 0
KPD2 230217Z 32007KT M01/M06 A3015 RMK A01 T10131064  RH  068%=      5-min Rain = 0
KPD2 230218Z 31008KT M01/M07 A3015 RMK A01 T10131065  RH  068%=      5-min Rain = 0
KPD2 230219Z 31006KT M01/M07 A3015 RMK A01 T10141065  RH  068%=      5-min Rain = 0
KPD2 230220Z 31006G11KT M01/M07 A3015 RMK A01 T10141065  RH  068%=      5-min Rain = 0
KPD2 230221Z 30009KT M01/M07 A3015 RMK A01 T10141065  RH  068%=      5-min Rain = 0
KPD2 230222Z 32007KT M01/M06 A3015 RMK A01 T10141064  RH  068%=      5-min Rain = 0
KPD2 230223Z 32006KT M01/M07 A3015 RMK A01 T10141065  RH  068%=      5-min Rain = 0
KPD2 230224Z 31007KT M01/M07 A3015 RMK A01 T10141065  RH  068%=      5-min Rain = 0
KPD2 230225Z 31006KT M01/M06 A3015 RMK A01 T10141064  RH  068%=      5-min Rain = 0
KPD2 230226Z 31006KT M01/M07 A3015 RMK A01 T10141065  RH  068%=      5-min Rain = 0
KPD2 230227Z 32007KT M01/M07 A3015 RMK A01 T10141065  RH  068%=      5-min Rain = 0
KPD2 230228Z 32007KT M02/M07 A3015 RMK A01 T10151065  RH  068%=      5-min Rain = 0
KPD2 230229Z 31009KT M02/M07 A3015 RMK A01 T10151065  RH  069%=      5-min Rain = 0
KPD2 230230Z 31006KT M02/M07 A3015 RMK A01 T10151065  RH  069%=      5-min Rain = 0
KPD2 230231Z 31007KT M01/M07 A3015 RMK A01 T10141065  RH  069%=      5-min Rain = 0
KPD2 230232Z 31007KT M02/M07 A3015 RMK A01 T10151065  RH  068%=      5-min Rain = 0
KPD2 230233Z 31008KT M01/M07 A3015 RMK A01 T10141065  RH  068%=      5-min Rain = 0
KPD2 230234Z 31008KT M01/M07 A3015 RMK A01 T10141065  RH  068%=      5-min Rain = 0
KPD2 230235Z 31009KT M01/M07 A3015 RMK A01 T10141065  RH  068%=      5-min Rain = 0
KPD2 230236Z 31007KT M01/M07 A3015 RMK A01 T10131065  RH  068%=      5-min Rain = 0
KPD2 230237Z 31007G13KT M01/M07 A3015 RMK A01 T10131065  RH  067%=      5-min Rain = 0
KPD2 230238Z 32008KT M01/M07 A3015 RMK A01 T10131066  RH  067%=      5-min Rain = 0
KPD2 230239Z 31009KT M01/M07 A3015 RMK A01 T10131066  RH  067%=      5-min Rain = 0
KPD2 230240Z 31008KT M01/M07 A3015 RMK A01 T10131067  RH  067%=      5-min Rain = 0
KPD2 230241Z 31007KT M01/M07 A3016 RMK A01 T10121067  RH  066%=      5-min Rain = 0
KPD2 230242Z 31007KT M01/M07 A3016 RMK A01 T10121067  RH  066%=      5-min Rain = 0
KPD2 230243Z 32010KT M01/M07 A3016 RMK A01 T10121067  RH  066%=      5-min Rain = 0
KPD2 230244Z 33007KT M01/M07 A3016 RMK A01 T10121067  RH  066%=      5-min Rain = 0
KPD2 230245Z 33008KT M01/M07 A3016 RMK A01 T10121067  RH  066%=      5-min Rain = 0
KPD2 230246Z 32007KT M01/M07 A3016 RMK A01 T10111067  RH  066%=      5-min Rain = 0
KPD2 230247Z 32007KT M01/M07 A3016 RMK A01 T10121068  RH  066%=      5-min Rain = 0
KPD2 230248Z 32007KT M01/M07 A3016 RMK A01 T10121069  RH  065%=      5-min Rain = 0
KPD2 230249Z 33007KT M01/M07 A3016 RMK A01 T10131069  RH  065%=      5-min Rain = 0
KPD2 230250Z 33010KT M01/M07 A3016 RMK A01 T10131069  RH  066%=      5-min Rain = 0
KPD2 230251Z 32009KT M01/M07 A3016 RMK A01 T10121069  RH  066%=      5-min Rain = 0
KPD2 230252Z 33009KT M01/M07 A3016 RMK A01 T10111068  RH  065%=      5-min Rain = 0
KPD2 230253Z 32007KT M01/M07 A3016 RMK A01 T10111069  RH  065%=      5-min Rain = 0
KPD2 230254Z 32006KT M01/M07 A3016 RMK A01 T10111069  RH  065%=      5-min Rain = 0
KPD2 230255Z 32006KT M01/M07 A3016 RMK A01 T10111069  RH  064%=      5-min Rain = 0
KPD2 230256Z 33006KT M01/M07 A3016 RMK A01 T10111070  RH  064%=      5-min Rain = 0
KPD2 230257Z 32005KT M01/M07 A3016 RMK A01 T10111070  RH  065%=      5-min Rain = 0
KPD2 230258Z 32007KT M01/M07 A3016 RMK A01 T10121070  RH  065%=      5-min Rain = 0
KPD2 230259Z 32007KT M01/M07 A3016 RMK A01 T10131071  RH  065%=      5-min Rain = 0
KPD2 230300Z 33006KT M01/M07 A3016 RMK A01 T10131071  RH  065%=      5-min Rain = 0
KPD2 230301Z 33006KT M01/M07 A3016 RMK A01 T10131070  RH  065%=      5-min Rain = 0
KPD2 230302Z 33005KT M01/M07 A3016 RMK A01 T10131070  RH  065%=      5-min Rain = 0
KPD2 230303Z 33004KT M01/M07 A3016 RMK A01 T10141071  RH  065%=      5-min Rain = 0
KPD2 230304Z 33008KT M01/M07 A3016 RMK A01 T10141071  RH  065%=      5-min Rain = 0
KPD2 230305Z 33007KT M01/M07 A3016 RMK A01 T10141071  RH  065%=      5-min Rain = 0
KPD2 230306Z 34005KT M01/M07 A3016 RMK A01 T10141071  RH  065%=      5-min Rain = 0
KPD2 230307Z 33005KT M01/M07 A3016 RMK A01 T10141071  RH  065%=      5-min Rain = 0
KPD2 230308Z 33005KT M01/M07 A3016 RMK A01 T10141071  RH  065%=      5-min Rain = 0
KPD2 230309Z 34005KT M01/M07 A3016 RMK A01 T10141071  RH  065%=      5-min Rain = 0
KPD2 230310Z 33005KT M02/M07 A3016 RMK A01 T10151072  RH  065%=      5-min Rain = 0
KPD2 230311Z 33004KT M02/M07 A3016 RMK A01 T10151071  RH  065%=      5-min Rain = 0
KPD2 230312Z 34005KT M02/M07 A3016 RMK A01 T10151071  RH  065%=      5-min Rain = 0
KPD2 230313Z 31005KT M02/M07 A3016 RMK A01 T10151072  RH  065%=      5-min Rain = 0
KPD2 230314Z 31006KT M02/M07 A3016 RMK A01 T10151071  RH  066%=      5-min Rain = 0
KPD2 230315Z 32007KT M02/M07 A3016 RMK A01 T10151071  RH  066%=      5-min Rain = 0
KPD2 230316Z 33007KT M01/M07 A3016 RMK A01 T10141071  RH  065%=      5-min Rain = 0
KPD2 230317Z 33006KT M01/M07 A3016 RMK A01 T10141071  RH  065%=      5-min Rain = 0
KPD2 230318Z 32005KT M01/M07 A3016 RMK A01 T10141071  RH  065%=      5-min Rain = 0
KPD2 230319Z 33005KT M01/M07 A3016 RMK A01 T10141072  RH  065%=      5-min Rain = 0
KPD2 230320Z 33007KT M02/M07 A3016 RMK A01 T10151072  RH  065%=      5-min Rain = 0
KPD2 230321Z 32006KT M02/M07 A3016 RMK A01 T10161072  RH  065%=      5-min Rain = 0
KPD2 230322Z 32007KT M02/M07 A3016 RMK A01 T10151072  RH  065%=      5-min Rain = 0
KPD2 230323Z 32007KT M02/M07 A3016 RMK A01 T10151072  RH  065%=      5-min Rain = 0
KPD2 230324Z 32007KT M01/M07 A3016 RMK A01 T10141071  RH  065%=      5-min Rain = 0
KPD2 230325Z 30006KT M01/M07 A3016 RMK A01 T10141071  RH  065%=      5-min Rain = 0
KPD2 230326Z 30008KT M01/M07 A3016 RMK A01 T10141072  RH  065%=      5-min Rain = 0
KPD2 230327Z 30009KT M01/M07 A3016 RMK A01 T10141072  RH  065%=      5-min Rain = 0
KPD2 230328Z 32008KT M01/M07 A3017 RMK A01 T10141072  RH  064%=      5-min Rain = 0
KPD2 230329Z 32007KT M01/M07 A3017 RMK A01 T10141072  RH  064%=      5-min Rain = 0
KPD2 230330Z 33007KT M01/M07 A3016 RMK A01 T10141072  RH  064%=      5-min Rain = 0
KPD2 230331Z 31008KT M02/M07 A3017 RMK A01 T10151073  RH  065%=      5-min Rain = 0
KPD2 230332Z 31005KT M02/M07 A3017 RMK A01 T10151073  RH  065%=      5-min Rain = 0
KPD2 230333Z 31009KT M02/M07 A3016 RMK A01 T10151072  RH  065%=      5-min Rain = 0
KPD2 230334Z 32010KT M02/M07 A3017 RMK A01 T10151072  RH  065%=      5-min Rain = 0
KPD2 230335Z 32007KT M01/M07 A3016 RMK A01 T10141071  RH  065%=      5-min Rain = 0
KPD2 230336Z 31008KT M02/M07 A3016 RMK A01 T10151072  RH  065%=      5-min Rain = 0
KPD2 230337Z 32007KT M01/M07 A3016 RMK A01 T10141072  RH  065%=      5-min Rain = 0
KPD2 230338Z 31009KT M01/M07 A3016 RMK A01 T10141072  RH  065%=      5-min Rain = 0
KPD2 230339Z 32009KT M02/M07 A3016 RMK A01 T10151072  RH  065%=      5-min Rain = 0
KPD2 230340Z 31009G14KT M01/M07 A3016 RMK A01 T10141071  RH  065%=      5-min Rain = 0
KPD2 230341Z 31009G15KT M01/M07 A3016 RMK A01 T10141071  RH  065%=      5-min Rain = 0
KPD2 230342Z 32009KT M01/M07 A3016 RMK A01 T10141072  RH  065%=      5-min Rain = 0
KPD2 230343Z 31009KT M01/M07 A3016 RMK A01 T10141072  RH  065%=      5-min Rain = 0
KPD2 230344Z 31008KT M01/M07 A3016 RMK A01 T10141072  RH  065%=      5-min Rain = 0
KPD2 230345Z 31008KT M01/M07 A3016 RMK A01 T10141072  RH  065%=      5-min Rain = 0
KPD2 230346Z 32010KT M01/M07 A3016 RMK A01 T10141072  RH  065%=      5-min Rain = 0
KPD2 230347Z 32012KT M01/M07 A3016 RMK A01 T10141072  RH  065%=      5-min Rain = 0
KPD2 230348Z 32009KT M01/M07 A3016 RMK A01 T10141071  RH  065%=      5-min Rain = 0
KPD2 230349Z 32009KT M01/M07 A3017 RMK A01 T10131071  RH  064%=      5-min Rain = 0
KPD2 230350Z 32010KT M01/M07 A3017 RMK A01 T10131072  RH  064%=      5-min Rain = 0
KPD2 230351Z 33008KT M01/M07 A3017 RMK A01 T10141072  RH  064%=      5-min Rain = 0
KPD2 230352Z 32009KT M01/M07 A3017 RMK A01 T10141073  RH  064%=      5-min Rain = 0
KPD2 230353Z 32009KT M01/M07 A3017 RMK A01 T10141073  RH  064%=      5-min Rain = 0
KPD2 230354Z 32011KT M01/M07 A3017 RMK A01 T10141073  RH  064%=      5-min Rain = 0
KPD2 230355Z 33009KT M01/M07 A3017 RMK A01 T10141073  RH  064%=      5-min Rain = 0
KPD2 230356Z 32008KT M01/M07 A3017 RMK A01 T10141073  RH  064%=      5-min Rain = 0
KPD2 230357Z 31006KT M01/M07 A3017 RMK A01 T10141073  RH  064%=      5-min Rain = 0
KPD2 230358Z 31007KT M01/M07 A3017 RMK A01 T10141074  RH  064%=      5-min Rain = 0
KPD2 230359Z 31008KT M02/M07 A3017 RMK A01 T10151074  RH  064%=      5-min Rain = 0
KPD2 230400Z 32008KT M02/M07 A3017 RMK A01 T10151074  RH  064%=      5-min Rain = 0
KPD2 230401Z 33009KT M02/M08 A3017 RMK A01 T10151075  RH  064%=      5-min Rain = 0
KPD2 230402Z 32008KT M02/M08 A3017 RMK A01 T10151075  RH  064%=      5-min Rain = 0
KPD2 230403Z 33009KT M02/M08 A3017 RMK A01 T10151075  RH  064%=      5-min Rain = 0
KPD2 230404Z 31010G15KT M02/M08 A3017 RMK A01 T10151075  RH  064%=      5-min Rain = 0
KPD2 230405Z 33010KT M01/M08 A3017 RMK A01 T10141075  RH  063%=      5-min Rain = 0
KPD2 230406Z 33010KT M01/M08 A3017 RMK A01 T10141075  RH  063%=      5-min Rain = 0
KPD2 230407Z 31008KT M01/M08 A3017 RMK A01 T10141075  RH  063%=      5-min Rain = 0
KPD2 230408Z 31010KT M01/M08 A3017 RMK A01 T10141076  RH  063%=      5-min Rain = 0
KPD2 230409Z 31010KT M01/M08 A3017 RMK A01 T10141076  RH  063%=      5-min Rain = 0
KPD2 230410Z 31010KT M01/M08 A3017 RMK A01 T10141076  RH  063%=      5-min Rain = 0
KPD2 230411Z 32008KT M01/M08 A3017 RMK A01 T10141076  RH  063%=      5-min Rain = 0
KPD2 230412Z 32008KT M01/M08 A3017 RMK A01 T10141076  RH  063%=      5-min Rain = 0
KPD2 230413Z 32009KT M01/M08 A3017 RMK A01 T10141076  RH  063%=      5-min Rain = 0
KPD2 230414Z 31009KT M01/M08 A3017 RMK A01 T10141076  RH  063%=      5-min Rain = 0
KPD2 230415Z 32008KT M01/M08 A3017 RMK A01 T10141076  RH  063%=      5-min Rain = 0
KPD2 230416Z 32010KT M01/M08 A3017 RMK A01 T10141076  RH  063%=      5-min Rain = 0
KPD2 230417Z 32007KT M01/M08 A3017 RMK A01 T10141076  RH  063%=      5-min Rain = 0
KPD2 230418Z 31008KT M01/M08 A3017 RMK A01 T10141076  RH  062%=      5-min Rain = 0
KPD2 230419Z 33006KT M01/M08 A3017 RMK A01 T10141077  RH  062%=      5-min Rain = 0
KPD2 230420Z 32006KT M02/M08 A3017 RMK A01 T10151077  RH  063%=      5-min Rain = 0
KPD2 230421Z 31007KT M02/M08 A3017 RMK A01 T10161077  RH  063%=      5-min Rain = 0
KPD2 230422Z 31007KT M02/M08 A3017 RMK A01 T10161077  RH  063%=      5-min Rain = 0
KPD2 230423Z 32009KT M02/M08 A3017 RMK A01 T10161077  RH  063%=      5-min Rain = 0
KPD2 230424Z 33009KT M02/M08 A3017 RMK A01 T10161076  RH  063%=      5-min Rain = 0
KPD2 230425Z 34006KT M02/M08 A3017 RMK A01 T10151076  RH  063%=      5-min Rain = 0
KPD2 230426Z 32005KT M02/M08 A3017 RMK A01 T10151076  RH  063%=      5-min Rain = 0
KPD2 230427Z 32005KT M02/M08 A3017 RMK A01 T10161077  RH  063%=      5-min Rain = 0
KPD2 230428Z 30006KT M02/M08 A3017 RMK A01 T10161077  RH  063%=      5-min Rain = 0
KPD2 230429Z 31007KT M02/M08 A3017 RMK A01 T10161077  RH  063%=      5-min Rain = 0
KPD2 230430Z 33009KT M02/M08 A3017 RMK A01 T10171077  RH  063%=      5-min Rain = 0
KPD2 230431Z 34008KT M02/M08 A3017 RMK A01 T10171077  RH  064%=      5-min Rain = 0
KPD2 230432Z 33006KT M02/M08 A3018 RMK A01 T10161076  RH  064%=      5-min Rain = 0
KPD2 230433Z 33007KT M02/M08 A3018 RMK A01 T10161077  RH  063%=      5-min Rain = 0
KPD2 230434Z 32006KT M02/M08 A3018 RMK A01 T10171077  RH  063%=      5-min Rain = 0
KPD2 230435Z 32006KT M02/M08 A3018 RMK A01 T10161077  RH  063%=      5-min Rain = 0
KPD2 230436Z 32007KT M02/M08 A3018 RMK A01 T10171078  RH  063%=      5-min Rain = 0
KPD2 230437Z 32009KT M02/M08 A3018 RMK A01 T10181078  RH  064%=      5-min Rain = 0
KPD2 230438Z 33006KT M02/M08 A3018 RMK A01 T10171077  RH  064%=      5-min Rain = 0
KPD2 230439Z 33009KT M02/M08 A3018 RMK A01 T10161077  RH  063%=      5-min Rain = 0
KPD2 230440Z 32007KT M02/M08 A3018 RMK A01 T10161076  RH  063%=      5-min Rain = 0
KPD2 230441Z 33006KT M02/M08 A3018 RMK A01 T10161077  RH  063%=      5-min Rain = 0
KPD2 230442Z 33005KT M02/M08 A3018 RMK A01 T10161077  RH  063%=      5-min Rain = 0
KPD2 230443Z 33006G11KT M02/M08 A3018 RMK A01 T10171078  RH  063%=      5-min Rain = 0
KPD2 230444Z 33007KT M02/M08 A3018 RMK A01 T10181079  RH  063%=      5-min Rain = 0
KPD2 230445Z 33006KT M02/M08 A3018 RMK A01 T10181078  RH  064%=      5-min Rain = 0
KPD2 230446Z 33007KT M02/M08 A3018 RMK A01 T10181078  RH  064%=      5-min Rain = 0
KPD2 230447Z 32007KT M02/M08 A3018 RMK A01 T10181078  RH  064%=      5-min Rain = 0
KPD2 230448Z 31006KT M02/M08 A3018 RMK A01 T10181078  RH  063%=      5-min Rain = 0
KPD2 230449Z 33005KT M02/M08 A3018 RMK A01 T10181078  RH  063%=      5-min Rain = 0
KPD2 230450Z 33006KT M02/M08 A3018 RMK A01 T10181079  RH  063%=      5-min Rain = 0
KPD2 230451Z 31007KT M02/M08 A3018 RMK A01 T10181079  RH  063%=      5-min Rain = 0
KPD2 230452Z 31006KT M02/M08 A3018 RMK A01 T10181079  RH  063%=      5-min Rain = 0
KPD2 230453Z 31009KT M02/M08 A3018 RMK A01 T10181079  RH  063%=      5-min Rain = 0
KPD2 230454Z 31008KT M02/M08 A3018 RMK A01 T10181079  RH  063%=      5-min Rain = 0
KPD2 230455Z 31008KT M02/M08 A3018 RMK A01 T10181079  RH  063%=      5-min Rain = 0
KPD2 230456Z 31008KT M02/M08 A3018 RMK A01 T10181079  RH  063%=      5-min Rain = 0
KPD2 230457Z 32007KT M02/M08 A3018 RMK A01 T10171079  RH  063%=      5-min Rain = 0
KPD2 230458Z 33008KT M02/M08 A3018 RMK A01 T10181079  RH  063%=      5-min Rain = 0
KPD2 230459Z 33006KT M02/M08 A3018 RMK A01 T10181079  RH  063%=      5-min Rain = 0
KPD2 230500Z 33008KT M02/M08 A3018 RMK A01 T10181080  RH  063%=      5-min Rain = 0
KPD2 230501Z 32007KT M02/M08 A3018 RMK A01 T10191080  RH  063%=      5-min Rain = 0
KPD2 230502Z 31010KT M02/M08 A3018 RMK A01 T10181079  RH  063%=      5-min Rain = 0
KPD2 230503Z 32009KT M02/M08 A3018 RMK A01 T10181079  RH  063%=      5-min Rain = 0
KPD2 230504Z 31008KT M02/M08 A3018 RMK A01 T10181079  RH  063%=      5-min Rain = 0
KPD2 230505Z 31006KT M02/M08 A3018 RMK A01 T10181079  RH  063%=      5-min Rain = 0
KPD2 230506Z 31006KT M02/M08 A3018 RMK A01 T10181080  RH  063%=      5-min Rain = 0
KPD2 230507Z 33007KT M02/M08 A3018 RMK A01 T10191080  RH  063%=      5-min Rain = 0
KPD2 230508Z 31009G14KT M02/M08 A3018 RMK A01 T10201081  RH  063%=      5-min Rain = 0
KPD2 230509Z 30010KT M02/M08 A3018 RMK A01 T10201080  RH  064%=      5-min Rain = 0
KPD2 230510Z 31007KT M02/M08 A3018 RMK A01 T10191079  RH  064%=      5-min Rain = 0
KPD2 230511Z 31006KT M02/M08 A3018 RMK A01 T10191080  RH  063%=      5-min Rain = 0
KPD2 230512Z 31008KT M02/M08 A3018 RMK A01 T10201080  RH  063%=      5-min Rain = 0
KPD2 230513Z 30008KT M02/M08 A3018 RMK A01 T10201080  RH  063%=      5-min Rain = 0
KPD2 230514Z 30007KT M02/M08 A3018 RMK A01 T10201079  RH  064%=      5-min Rain = 0
KPD2 230515Z 31007KT M02/M08 A3018 RMK A01 T10201080  RH  064%=      5-min Rain = 0
KPD2 230516Z 31008KT M02/M08 A3018 RMK A01 T10211080  RH  064%=      5-min Rain = 0
KPD2 230517Z 31008KT M02/M08 A3018 RMK A01 T10211080  RH  064%=      5-min Rain = 0
KPD2 230518Z 31008KT M02/M08 A3018 RMK A01 T10221080  RH  064%=      5-min Rain = 0
KPD2 230519Z 31007KT M02/M08 A3018 RMK A01 T10221080  RH  064%=      5-min Rain = 0
KPD2 230520Z 31008KT M02/M08 A3018 RMK A01 T10221080  RH  065%=      5-min Rain = 0
KPD2 230521Z 31007KT M02/M08 A3018 RMK A01 T10221080  RH  065%=      5-min Rain = 0
KPD2 230522Z 31008KT M02/M08 A3018 RMK A01 T10221080  RH  065%=      5-min Rain = 0
KPD2 230523Z 31008KT M02/M08 A3018 RMK A01 T10221080  RH  065%=      5-min Rain = 0
KPD2 230524Z 31009KT M02/M08 A3018 RMK A01 T10221080  RH  064%=      5-min Rain = 0
KPD2 230525Z 32008KT M02/M08 A3018 RMK A01 T10221080  RH  064%=      5-min Rain = 0
KPD2 230526Z 31008KT M02/M08 A3018 RMK A01 T10221080  RH  065%=      5-min Rain = 0
KPD2 230527Z 31008KT M02/M08 A3018 RMK A01 T10221080  RH  065%=      5-min Rain = 0
KPD2 230528Z 31008KT M02/M08 A3018 RMK A01 T10221080  RH  065%=      5-min Rain = 0
KPD2 230529Z 31008KT M02/M08 A3018 RMK A01 T10221080  RH  065%=      5-min Rain = 0
KPD2 230530Z 31009KT M02/M08 A3018 RMK A01 T10221080  RH  064%=      5-min Rain = 0
KPD2 230531Z 30009KT M02/M08 A3018 RMK A01 T10221080  RH  065%=      5-min Rain = 0
KPD2 230532Z 31009KT M02/M08 A3018 RMK A01 T10221080  RH  065%=      5-min Rain = 0
KPD2 230533Z 31010KT M02/M08 A3018 RMK A01 T10221080  RH  064%=      5-min Rain = 0
KPD2 230534Z 31010KT M02/M08 A3018 RMK A01 T10221080  RH  064%=      5-min Rain = 0
KPD2 230535Z 31010KT M02/M08 A3018 RMK A01 T10211079  RH  064%=      5-min Rain = 0
KPD2 230536Z 32008KT M02/M08 A3018 RMK A01 T10211080  RH  064%=      5-min Rain = 0
KPD2 230537Z 32005KT M02/M08 A3018 RMK A01 T10211080  RH  064%=      5-min Rain = 0
KPD2 230538Z 30006KT M02/M08 A3018 RMK A01 T10221080  RH  064%=      5-min Rain = 0
KPD2 230539Z 32005KT M02/M08 A3018 RMK A01 T10231081  RH  064%=      5-min Rain = 0
KPD2 230540Z 31006KT M02/M08 A3018 RMK A01 T10231081  RH  064%=      5-min Rain = 0
KPD2 230541Z 32006KT M02/M08 A3018 RMK A01 T10241081  RH  065%=      5-min Rain = 0
KPD2 230542Z 32006KT M03/M08 A3018 RMK A01 T10251082  RH  065%=      5-min Rain = 0
KPD2 230543Z 31006KT M03/M08 A3018 RMK A01 T10251081  RH  065%=      5-min Rain = 0
KPD2 230544Z 31007KT M03/M08 A3018 RMK A01 T10251081  RH  065%=      5-min Rain = 0
KPD2 230545Z 31007KT M03/M08 A3018 RMK A01 T10251081  RH  066%=      5-min Rain = 0
KPD2 230546Z 31006KT M03/M08 A3018 RMK A01 T10251080  RH  066%=      5-min Rain = 0
KPD2 230547Z 32007KT M03/M08 A3018 RMK A01 T10251080  RH  066%=      5-min Rain = 0
KPD2 230548Z 32008KT M03/M08 A3018 RMK A01 T10261081  RH  066%=      5-min Rain = 0
KPD2 230549Z 32006KT M03/M08 A3018 RMK A01 T10261080  RH  066%=      5-min Rain = 0
KPD2 230550Z 32005KT M03/M08 A3018 RMK A01 T10261080  RH  066%=      5-min Rain = 0
KPD2 230551Z 32006KT M03/M08 A3018 RMK A01 T10271080  RH  067%=      5-min Rain = 0
KPD2 230552Z 32007KT M03/M08 A3018 RMK A01 T10271080  RH  067%=      5-min Rain = 0
KPD2 230553Z 33006KT M03/M08 A3018 RMK A01 T10271080  RH  067%=      5-min Rain = 0
KPD2 230554Z 32006KT M03/M08 A3018 RMK A01 T10271081  RH  067%=      5-min Rain = 0
KPD2 230555Z 32006KT M03/M08 A3018 RMK A01 T10281081  RH  067%=      5-min Rain = 0
KPD2 230556Z 32006KT M03/M08 A3018 RMK A01 T10281080  RH  067%=      5-min Rain = 0
KPD2 230557Z 32006KT M03/M08 A3018 RMK A01 T10281080  RH  067%=      5-min Rain = 0
KPD2 230558Z 33006KT M03/M08 A3018 RMK A01 T10271080  RH  067%=      5-min Rain = 0
KPD2 230559Z 32005KT M03/M08 A3018 RMK A01 T10281081  RH  067%=      5-min Rain = 0

Page generated in 0.0761 seconds.